<?xml version="1.0" encoding="UTF-8" standalone="no" ?>
<gpx xmlns="http://www.topografix.com/GPX/1/1" xmlns:xsi="http://www.w3.org/2001/XMLSchema-instance" xsi:schemaLocation="http://www.topografix.com/GPX/1/1 http://www.topografix.com/GPX/1/1/gpx.xsd" version="1.1" creator="VisuGPX - https://www.visugpx.com">
  <metadata>
    <name>RECO SAINT ANTONIN CHATEAU MENTONE 83</name>
    <desc><![CDATA[Reconnaissance rando à Saint Antonin du Var départ du château Mentone. ]]></desc>
  </metadata>
  <trk>
    <name><![CDATA[Tracé actuel: 27 NOV 2015 08:53]]></name>
    <trkseg>
      <trkpt lat="43.52553" lon="6.27659">
        <ele>250.56</ele>
        <time>2015-11-27T07:53:31Z</time>
      </trkpt>
      <trkpt lat="43.52558" lon="6.27637">
        <ele>250.08</ele>
        <time>2015-11-27T07:53:45Z</time>
      </trkpt>
      <trkpt lat="43.52562" lon="6.27626">
        <ele>250.08</ele>
        <time>2015-11-27T07:53:52Z</time>
      </trkpt>
      <trkpt lat="43.52565" lon="6.27617">
        <ele>250.08</ele>
        <time>2015-11-27T07:53:57Z</time>
      </trkpt>
      <trkpt lat="43.52566" lon="6.27602">
        <ele>249.12</ele>
        <time>2015-11-27T07:54:04Z</time>
      </trkpt>
      <trkpt lat="43.52557" lon="6.27567">
        <ele>247.68</ele>
        <time>2015-11-27T07:54:20Z</time>
      </trkpt>
      <trkpt lat="43.52547" lon="6.27531">
        <ele>246.72</ele>
        <time>2015-11-27T07:54:37Z</time>
      </trkpt>
      <trkpt lat="43.52537" lon="6.27503">
        <ele>246.23</ele>
        <time>2015-11-27T07:54:51Z</time>
      </trkpt>
      <trkpt lat="43.52517" lon="6.275">
        <ele>246.23</ele>
        <time>2015-11-27T07:55:04Z</time>
      </trkpt>
      <trkpt lat="43.52515" lon="6.27505">
        <ele>246.23</ele>
        <time>2015-11-27T07:55:07Z</time>
      </trkpt>
      <trkpt lat="43.52507" lon="6.27533">
        <ele>246.23</ele>
        <time>2015-11-27T07:55:21Z</time>
      </trkpt>
      <trkpt lat="43.52493" lon="6.27567">
        <ele>245.75</ele>
        <time>2015-11-27T07:55:38Z</time>
      </trkpt>
      <trkpt lat="43.52484" lon="6.27596">
        <ele>245.75</ele>
        <time>2015-11-27T07:55:54Z</time>
      </trkpt>
      <trkpt lat="43.52472" lon="6.2763">
        <ele>245.27</ele>
        <time>2015-11-27T07:56:11Z</time>
      </trkpt>
      <trkpt lat="43.52461" lon="6.27666">
        <ele>245.27</ele>
        <time>2015-11-27T07:56:29Z</time>
      </trkpt>
      <trkpt lat="43.52449" lon="6.27704">
        <ele>245.27</ele>
        <time>2015-11-27T07:56:49Z</time>
      </trkpt>
      <trkpt lat="43.52442" lon="6.27731">
        <ele>245.27</ele>
        <time>2015-11-27T07:57:03Z</time>
      </trkpt>
      <trkpt lat="43.52432" lon="6.27763">
        <ele>244.79</ele>
        <time>2015-11-27T07:57:20Z</time>
      </trkpt>
      <trkpt lat="43.52421" lon="6.27802">
        <ele>244.79</ele>
        <time>2015-11-27T07:57:38Z</time>
      </trkpt>
      <trkpt lat="43.52411" lon="6.27836">
        <ele>244.79</ele>
        <time>2015-11-27T07:57:56Z</time>
      </trkpt>
      <trkpt lat="43.52401" lon="6.27864">
        <ele>244.79</ele>
        <time>2015-11-27T07:58:12Z</time>
      </trkpt>
      <trkpt lat="43.52389" lon="6.27898">
        <ele>244.31</ele>
        <time>2015-11-27T07:58:29Z</time>
      </trkpt>
      <trkpt lat="43.52382" lon="6.27928">
        <ele>244.31</ele>
        <time>2015-11-27T07:58:44Z</time>
      </trkpt>
      <trkpt lat="43.52368" lon="6.27961">
        <ele>244.79</ele>
        <time>2015-11-27T07:59:03Z</time>
      </trkpt>
      <trkpt lat="43.52375" lon="6.27985">
        <ele>245.27</ele>
        <time>2015-11-27T07:59:17Z</time>
      </trkpt>
      <trkpt lat="43.52389" lon="6.28">
        <ele>246.23</ele>
        <time>2015-11-27T07:59:30Z</time>
      </trkpt>
      <trkpt lat="43.52394" lon="6.28006">
        <ele>246.23</ele>
        <time>2015-11-27T07:59:35Z</time>
      </trkpt>
      <trkpt lat="43.52405" lon="6.28024">
        <ele>248.16</ele>
        <time>2015-11-27T07:59:47Z</time>
      </trkpt>
      <trkpt lat="43.5241" lon="6.28033">
        <ele>248.64</ele>
        <time>2015-11-27T07:59:53Z</time>
      </trkpt>
      <trkpt lat="43.52419" lon="6.28044">
        <ele>249.6</ele>
        <time>2015-11-27T08:00:02Z</time>
      </trkpt>
      <trkpt lat="43.52421" lon="6.28047">
        <ele>250.08</ele>
        <time>2015-11-27T08:00:04Z</time>
      </trkpt>
      <trkpt lat="43.52429" lon="6.28057">
        <ele>251.04</ele>
        <time>2015-11-27T08:00:12Z</time>
      </trkpt>
      <trkpt lat="43.52437" lon="6.28068">
        <ele>252</ele>
        <time>2015-11-27T08:00:21Z</time>
      </trkpt>
      <trkpt lat="43.52441" lon="6.28073">
        <ele>252.96</ele>
        <time>2015-11-27T08:00:25Z</time>
      </trkpt>
      <trkpt lat="43.52447" lon="6.28081">
        <ele>253.44</ele>
        <time>2015-11-27T08:00:31Z</time>
      </trkpt>
      <trkpt lat="43.52453" lon="6.28088">
        <ele>254.89</ele>
        <time>2015-11-27T08:00:39Z</time>
      </trkpt>
      <trkpt lat="43.52457" lon="6.28096">
        <ele>256.33</ele>
        <time>2015-11-27T08:00:53Z</time>
      </trkpt>
      <trkpt lat="43.52457" lon="6.28098">
        <ele>256.81</ele>
        <time>2015-11-27T08:00:58Z</time>
      </trkpt>
      <trkpt lat="43.52457" lon="6.28102">
        <ele>256.81</ele>
        <time>2015-11-27T08:01:02Z</time>
      </trkpt>
      <trkpt lat="43.52452" lon="6.28113">
        <ele>259.21</ele>
        <time>2015-11-27T08:01:10Z</time>
      </trkpt>
      <trkpt lat="43.52438" lon="6.28128">
        <ele>257.77</ele>
        <time>2015-11-27T08:01:26Z</time>
      </trkpt>
      <trkpt lat="43.52435" lon="6.2813">
        <ele>261.14</ele>
        <time>2015-11-27T08:01:29Z</time>
      </trkpt>
      <trkpt lat="43.52423" lon="6.28139">
        <ele>260.17</ele>
        <time>2015-11-27T08:01:43Z</time>
      </trkpt>
      <trkpt lat="43.52424" lon="6.28139">
        <ele>261.14</ele>
        <time>2015-11-27T08:02:00Z</time>
      </trkpt>
      <trkpt lat="43.52423" lon="6.28139">
        <ele>261.62</ele>
        <time>2015-11-27T08:02:22Z</time>
      </trkpt>
      <trkpt lat="43.52429" lon="6.28134">
        <ele>260.17</ele>
        <time>2015-11-27T08:02:31Z</time>
      </trkpt>
      <trkpt lat="43.52447" lon="6.28119">
        <ele>259.21</ele>
        <time>2015-11-27T08:02:44Z</time>
      </trkpt>
      <trkpt lat="43.52456" lon="6.28112">
        <ele>259.21</ele>
        <time>2015-11-27T08:02:52Z</time>
      </trkpt>
      <trkpt lat="43.52456" lon="6.28109">
        <ele>259.21</ele>
        <time>2015-11-27T08:02:54Z</time>
      </trkpt>
      <trkpt lat="43.52451" lon="6.28107">
        <ele>257.29</ele>
        <time>2015-11-27T08:03:00Z</time>
      </trkpt>
      <trkpt lat="43.52436" lon="6.28115">
        <ele>256.33</ele>
        <time>2015-11-27T08:03:16Z</time>
      </trkpt>
      <trkpt lat="43.52438" lon="6.28112">
        <ele>256.33</ele>
        <time>2015-11-27T08:03:28Z</time>
      </trkpt>
      <trkpt lat="43.52449" lon="6.28105">
        <ele>255.85</ele>
        <time>2015-11-27T08:03:42Z</time>
      </trkpt>
      <trkpt lat="43.52461" lon="6.28098">
        <ele>257.77</ele>
        <time>2015-11-27T08:03:58Z</time>
      </trkpt>
      <trkpt lat="43.52461" lon="6.28098">
        <ele>257.77</ele>
        <time>2015-11-27T08:04:12Z</time>
      </trkpt>
      <trkpt lat="43.5246" lon="6.28098">
        <ele>257.77</ele>
        <time>2015-11-27T08:04:28Z</time>
      </trkpt>
      <trkpt lat="43.5246" lon="6.281">
        <ele>257.77</ele>
        <time>2015-11-27T08:04:33Z</time>
      </trkpt>
      <trkpt lat="43.52459" lon="6.28107">
        <ele>259.21</ele>
        <time>2015-11-27T08:04:45Z</time>
      </trkpt>
      <trkpt lat="43.52458" lon="6.28109">
        <ele>260.17</ele>
        <time>2015-11-27T08:04:54Z</time>
      </trkpt>
      <trkpt lat="43.52459" lon="6.28101">
        <ele>257.77</ele>
        <time>2015-11-27T08:05:02Z</time>
      </trkpt>
      <trkpt lat="43.52453" lon="6.28103">
        <ele>257.29</ele>
        <time>2015-11-27T08:05:06Z</time>
      </trkpt>
      <trkpt lat="43.5243" lon="6.28115">
        <ele>256.33</ele>
        <time>2015-11-27T08:05:25Z</time>
      </trkpt>
      <trkpt lat="43.5241" lon="6.28124">
        <ele>254.89</ele>
        <time>2015-11-27T08:05:40Z</time>
      </trkpt>
      <trkpt lat="43.52388" lon="6.28136">
        <ele>253.44</ele>
        <time>2015-11-27T08:05:58Z</time>
      </trkpt>
      <trkpt lat="43.52369" lon="6.28145">
        <ele>252.48</ele>
        <time>2015-11-27T08:06:14Z</time>
      </trkpt>
      <trkpt lat="43.52348" lon="6.28154">
        <ele>251.04</ele>
        <time>2015-11-27T08:06:29Z</time>
      </trkpt>
      <trkpt lat="43.52334" lon="6.2816">
        <ele>249.12</ele>
        <time>2015-11-27T08:06:40Z</time>
      </trkpt>
      <trkpt lat="43.52315" lon="6.28168">
        <ele>249.6</ele>
        <time>2015-11-27T08:06:55Z</time>
      </trkpt>
      <trkpt lat="43.52295" lon="6.28177">
        <ele>248.16</ele>
        <time>2015-11-27T08:07:10Z</time>
      </trkpt>
      <trkpt lat="43.52277" lon="6.28185">
        <ele>248.16</ele>
        <time>2015-11-27T08:07:24Z</time>
      </trkpt>
      <trkpt lat="43.52264" lon="6.2819">
        <ele>245.75</ele>
        <time>2015-11-27T08:07:39Z</time>
      </trkpt>
      <trkpt lat="43.52253" lon="6.28194">
        <ele>245.27</ele>
        <time>2015-11-27T08:07:55Z</time>
      </trkpt>
      <trkpt lat="43.52246" lon="6.28196">
        <ele>244.79</ele>
        <time>2015-11-27T08:08:11Z</time>
      </trkpt>
      <trkpt lat="43.52244" lon="6.28198">
        <ele>244.79</ele>
        <time>2015-11-27T08:08:30Z</time>
      </trkpt>
      <trkpt lat="43.52244" lon="6.28197">
        <ele>244.79</ele>
        <time>2015-11-27T08:08:53Z</time>
      </trkpt>
      <trkpt lat="43.52234" lon="6.28198">
        <ele>244.79</ele>
        <time>2015-11-27T08:09:02Z</time>
      </trkpt>
      <trkpt lat="43.52212" lon="6.28194">
        <ele>244.31</ele>
        <time>2015-11-27T08:09:17Z</time>
      </trkpt>
      <trkpt lat="43.522" lon="6.28191">
        <ele>243.83</ele>
        <time>2015-11-27T08:09:26Z</time>
      </trkpt>
      <trkpt lat="43.52198" lon="6.28195">
        <ele>243.83</ele>
        <time>2015-11-27T08:09:37Z</time>
      </trkpt>
      <trkpt lat="43.52198" lon="6.28196">
        <ele>244.31</ele>
        <time>2015-11-27T08:09:59Z</time>
      </trkpt>
      <trkpt lat="43.52198" lon="6.28194">
        <ele>244.31</ele>
        <time>2015-11-27T08:10:22Z</time>
      </trkpt>
      <trkpt lat="43.52198" lon="6.28193">
        <ele>244.31</ele>
        <time>2015-11-27T08:10:50Z</time>
      </trkpt>
      <trkpt lat="43.52198" lon="6.28193">
        <ele>244.79</ele>
        <time>2015-11-27T08:11:20Z</time>
      </trkpt>
      <trkpt lat="43.52198" lon="6.28193">
        <ele>244.31</ele>
        <time>2015-11-27T08:11:38Z</time>
      </trkpt>
      <trkpt lat="43.52196" lon="6.28195">
        <ele>244.31</ele>
        <time>2015-11-27T08:11:51Z</time>
      </trkpt>
      <trkpt lat="43.52195" lon="6.28195">
        <ele>244.31</ele>
        <time>2015-11-27T08:11:52Z</time>
      </trkpt>
      <trkpt lat="43.52183" lon="6.28203">
        <ele>244.31</ele>
        <time>2015-11-27T08:12:02Z</time>
      </trkpt>
      <trkpt lat="43.5216" lon="6.28212">
        <ele>244.79</ele>
        <time>2015-11-27T08:12:19Z</time>
      </trkpt>
      <trkpt lat="43.52143" lon="6.28218">
        <ele>244.79</ele>
        <time>2015-11-27T08:12:33Z</time>
      </trkpt>
      <trkpt lat="43.52133" lon="6.28224">
        <ele>244.79</ele>
        <time>2015-11-27T08:12:41Z</time>
      </trkpt>
      <trkpt lat="43.52126" lon="6.28228">
        <ele>244.31</ele>
        <time>2015-11-27T08:12:46Z</time>
      </trkpt>
      <trkpt lat="43.52108" lon="6.2824">
        <ele>244.31</ele>
        <time>2015-11-27T08:12:59Z</time>
      </trkpt>
      <trkpt lat="43.52089" lon="6.28248">
        <ele>244.31</ele>
        <time>2015-11-27T08:13:12Z</time>
      </trkpt>
      <trkpt lat="43.52088" lon="6.2825">
        <ele>244.31</ele>
        <time>2015-11-27T08:13:13Z</time>
      </trkpt>
      <trkpt lat="43.5207" lon="6.28267">
        <ele>243.83</ele>
        <time>2015-11-27T08:13:27Z</time>
      </trkpt>
      <trkpt lat="43.52056" lon="6.28277">
        <ele>243.83</ele>
        <time>2015-11-27T08:13:38Z</time>
      </trkpt>
      <trkpt lat="43.52034" lon="6.2828">
        <ele>243.83</ele>
        <time>2015-11-27T08:13:53Z</time>
      </trkpt>
      <trkpt lat="43.52015" lon="6.28288">
        <ele>243.83</ele>
        <time>2015-11-27T08:14:05Z</time>
      </trkpt>
      <trkpt lat="43.52009" lon="6.2829">
        <ele>243.83</ele>
        <time>2015-11-27T08:14:09Z</time>
      </trkpt>
      <trkpt lat="43.51998" lon="6.28294">
        <ele>243.83</ele>
        <time>2015-11-27T08:14:16Z</time>
      </trkpt>
      <trkpt lat="43.51973" lon="6.28298">
        <ele>243.35</ele>
        <time>2015-11-27T08:14:32Z</time>
      </trkpt>
      <trkpt lat="43.51958" lon="6.28304">
        <ele>243.35</ele>
        <time>2015-11-27T08:14:42Z</time>
      </trkpt>
      <trkpt lat="43.51944" lon="6.28311">
        <ele>243.35</ele>
        <time>2015-11-27T08:14:51Z</time>
      </trkpt>
      <trkpt lat="43.51928" lon="6.28316">
        <ele>243.35</ele>
        <time>2015-11-27T08:15:01Z</time>
      </trkpt>
      <trkpt lat="43.51924" lon="6.28319">
        <ele>243.35</ele>
        <time>2015-11-27T08:15:04Z</time>
      </trkpt>
      <trkpt lat="43.51917" lon="6.28323">
        <ele>243.35</ele>
        <time>2015-11-27T08:15:10Z</time>
      </trkpt>
      <trkpt lat="43.51913" lon="6.28325">
        <ele>243.35</ele>
        <time>2015-11-27T08:15:13Z</time>
      </trkpt>
      <trkpt lat="43.51905" lon="6.28328">
        <ele>243.35</ele>
        <time>2015-11-27T08:15:18Z</time>
      </trkpt>
      <trkpt lat="43.51887" lon="6.28336">
        <ele>243.35</ele>
        <time>2015-11-27T08:15:30Z</time>
      </trkpt>
      <trkpt lat="43.5188" lon="6.28343">
        <ele>243.35</ele>
        <time>2015-11-27T08:15:37Z</time>
      </trkpt>
      <trkpt lat="43.51861" lon="6.28366">
        <ele>243.35</ele>
        <time>2015-11-27T08:15:54Z</time>
      </trkpt>
      <trkpt lat="43.51857" lon="6.28373">
        <ele>243.35</ele>
        <time>2015-11-27T08:15:59Z</time>
      </trkpt>
      <trkpt lat="43.51856" lon="6.28376">
        <ele>243.35</ele>
        <time>2015-11-27T08:16:01Z</time>
      </trkpt>
      <trkpt lat="43.51846" lon="6.28386">
        <ele>243.35</ele>
        <time>2015-11-27T08:16:09Z</time>
      </trkpt>
      <trkpt lat="43.51834" lon="6.28411">
        <ele>243.35</ele>
        <time>2015-11-27T08:16:22Z</time>
      </trkpt>
      <trkpt lat="43.51833" lon="6.2842">
        <ele>243.35</ele>
        <time>2015-11-27T08:16:27Z</time>
      </trkpt>
      <trkpt lat="43.51825" lon="6.28454">
        <ele>243.35</ele>
        <time>2015-11-27T08:16:41Z</time>
      </trkpt>
      <trkpt lat="43.51823" lon="6.28466">
        <ele>242.87</ele>
        <time>2015-11-27T08:16:47Z</time>
      </trkpt>
      <trkpt lat="43.5182" lon="6.28475">
        <ele>243.35</ele>
        <time>2015-11-27T08:16:51Z</time>
      </trkpt>
      <trkpt lat="43.51818" lon="6.28483">
        <ele>243.83</ele>
        <time>2015-11-27T08:16:55Z</time>
      </trkpt>
      <trkpt lat="43.51826" lon="6.28517">
        <ele>242.87</ele>
        <time>2015-11-27T08:17:09Z</time>
      </trkpt>
      <trkpt lat="43.51831" lon="6.28552">
        <ele>242.39</ele>
        <time>2015-11-27T08:17:24Z</time>
      </trkpt>
      <trkpt lat="43.51836" lon="6.28582">
        <ele>242.39</ele>
        <time>2015-11-27T08:17:37Z</time>
      </trkpt>
      <trkpt lat="43.51845" lon="6.28618">
        <ele>241.91</ele>
        <time>2015-11-27T08:17:53Z</time>
      </trkpt>
      <trkpt lat="43.51856" lon="6.28638">
        <ele>241.43</ele>
        <time>2015-11-27T08:18:04Z</time>
      </trkpt>
      <trkpt lat="43.51868" lon="6.28664">
        <ele>240.95</ele>
        <time>2015-11-27T08:18:18Z</time>
      </trkpt>
      <trkpt lat="43.5188" lon="6.28695">
        <ele>240.47</ele>
        <time>2015-11-27T08:18:34Z</time>
      </trkpt>
      <trkpt lat="43.51891" lon="6.28723">
        <ele>240.47</ele>
        <time>2015-11-27T08:18:48Z</time>
      </trkpt>
      <trkpt lat="43.51905" lon="6.28756">
        <ele>240.47</ele>
        <time>2015-11-27T08:19:05Z</time>
      </trkpt>
      <trkpt lat="43.51915" lon="6.2879">
        <ele>240.47</ele>
        <time>2015-11-27T08:19:21Z</time>
      </trkpt>
      <trkpt lat="43.51922" lon="6.28822">
        <ele>240.47</ele>
        <time>2015-11-27T08:19:37Z</time>
      </trkpt>
      <trkpt lat="43.51925" lon="6.28852">
        <ele>240.95</ele>
        <time>2015-11-27T08:19:52Z</time>
      </trkpt>
      <trkpt lat="43.51925" lon="6.28879">
        <ele>241.43</ele>
        <time>2015-11-27T08:20:05Z</time>
      </trkpt>
      <trkpt lat="43.51923" lon="6.28894">
        <ele>240.95</ele>
        <time>2015-11-27T08:20:20Z</time>
      </trkpt>
      <trkpt lat="43.51921" lon="6.2889">
        <ele>240.47</ele>
        <time>2015-11-27T08:20:31Z</time>
      </trkpt>
      <trkpt lat="43.51921" lon="6.28887">
        <ele>239.99</ele>
        <time>2015-11-27T08:20:36Z</time>
      </trkpt>
      <trkpt lat="43.5192" lon="6.28881">
        <ele>239.51</ele>
        <time>2015-11-27T08:20:40Z</time>
      </trkpt>
      <trkpt lat="43.51915" lon="6.28887">
        <ele>238.54</ele>
        <time>2015-11-27T08:20:49Z</time>
      </trkpt>
      <trkpt lat="43.51914" lon="6.28894">
        <ele>238.54</ele>
        <time>2015-11-27T08:20:53Z</time>
      </trkpt>
      <trkpt lat="43.51911" lon="6.28913">
        <ele>238.54</ele>
        <time>2015-11-27T08:21:03Z</time>
      </trkpt>
      <trkpt lat="43.5191" lon="6.28924">
        <ele>236.62</ele>
        <time>2015-11-27T08:21:10Z</time>
      </trkpt>
      <trkpt lat="43.51912" lon="6.28931">
        <ele>236.14</ele>
        <time>2015-11-27T08:21:23Z</time>
      </trkpt>
      <trkpt lat="43.51913" lon="6.28931">
        <ele>235.66</ele>
        <time>2015-11-27T08:21:27Z</time>
      </trkpt>
      <trkpt lat="43.51916" lon="6.28934">
        <ele>236.62</ele>
        <time>2015-11-27T08:21:31Z</time>
      </trkpt>
      <trkpt lat="43.51925" lon="6.28941">
        <ele>238.06</ele>
        <time>2015-11-27T08:21:41Z</time>
      </trkpt>
      <trkpt lat="43.51927" lon="6.28941">
        <ele>238.06</ele>
        <time>2015-11-27T08:21:43Z</time>
      </trkpt>
      <trkpt lat="43.51944" lon="6.28944">
        <ele>240.47</ele>
        <time>2015-11-27T08:21:59Z</time>
      </trkpt>
      <trkpt lat="43.51963" lon="6.2894">
        <ele>242.39</ele>
        <time>2015-11-27T08:22:14Z</time>
      </trkpt>
      <trkpt lat="43.51979" lon="6.2894">
        <ele>243.83</ele>
        <time>2015-11-27T08:22:25Z</time>
      </trkpt>
      <trkpt lat="43.51994" lon="6.28927">
        <ele>243.35</ele>
        <time>2015-11-27T08:22:33Z</time>
      </trkpt>
      <trkpt lat="43.52012" lon="6.28926">
        <ele>244.79</ele>
        <time>2015-11-27T08:22:46Z</time>
      </trkpt>
      <trkpt lat="43.52032" lon="6.28922">
        <ele>246.23</ele>
        <time>2015-11-27T08:23:01Z</time>
      </trkpt>
      <trkpt lat="43.52051" lon="6.28922">
        <ele>248.16</ele>
        <time>2015-11-27T08:23:15Z</time>
      </trkpt>
      <trkpt lat="43.52057" lon="6.28921">
        <ele>248.16</ele>
        <time>2015-11-27T08:23:29Z</time>
      </trkpt>
      <trkpt lat="43.5207" lon="6.28922">
        <ele>250.08</ele>
        <time>2015-11-27T08:23:44Z</time>
      </trkpt>
      <trkpt lat="43.52078" lon="6.28921">
        <ele>251.04</ele>
        <time>2015-11-27T08:23:50Z</time>
      </trkpt>
      <trkpt lat="43.52093" lon="6.28923">
        <ele>253.93</ele>
        <time>2015-11-27T08:24:03Z</time>
      </trkpt>
      <trkpt lat="43.52094" lon="6.28923">
        <ele>253.93</ele>
        <time>2015-11-27T08:24:04Z</time>
      </trkpt>
      <trkpt lat="43.52102" lon="6.28921">
        <ele>254.89</ele>
        <time>2015-11-27T08:24:08Z</time>
      </trkpt>
      <trkpt lat="43.5212" lon="6.28909">
        <ele>256.33</ele>
        <time>2015-11-27T08:24:21Z</time>
      </trkpt>
      <trkpt lat="43.52125" lon="6.28903">
        <ele>256.81</ele>
        <time>2015-11-27T08:24:25Z</time>
      </trkpt>
      <trkpt lat="43.52138" lon="6.28891">
        <ele>257.77</ele>
        <time>2015-11-27T08:24:38Z</time>
      </trkpt>
      <trkpt lat="43.52141" lon="6.28889">
        <ele>258.25</ele>
        <time>2015-11-27T08:24:42Z</time>
      </trkpt>
      <trkpt lat="43.52146" lon="6.28886">
        <ele>258.73</ele>
        <time>2015-11-27T08:24:46Z</time>
      </trkpt>
      <trkpt lat="43.52163" lon="6.28879">
        <ele>260.17</ele>
        <time>2015-11-27T08:24:59Z</time>
      </trkpt>
      <trkpt lat="43.52164" lon="6.28879">
        <ele>260.65</ele>
        <time>2015-11-27T08:25:00Z</time>
      </trkpt>
      <trkpt lat="43.52175" lon="6.28876">
        <ele>261.62</ele>
        <time>2015-11-27T08:25:10Z</time>
      </trkpt>
      <trkpt lat="43.52178" lon="6.28872">
        <ele>262.1</ele>
        <time>2015-11-27T08:25:14Z</time>
      </trkpt>
      <trkpt lat="43.52192" lon="6.28861">
        <ele>263.54</ele>
        <time>2015-11-27T08:25:26Z</time>
      </trkpt>
      <trkpt lat="43.52195" lon="6.28859">
        <ele>264.02</ele>
        <time>2015-11-27T08:25:29Z</time>
      </trkpt>
      <trkpt lat="43.52199" lon="6.28853">
        <ele>264.5</ele>
        <time>2015-11-27T08:25:34Z</time>
      </trkpt>
      <trkpt lat="43.52206" lon="6.28841">
        <ele>265.46</ele>
        <time>2015-11-27T08:25:44Z</time>
      </trkpt>
      <trkpt lat="43.52214" lon="6.28829">
        <ele>266.42</ele>
        <time>2015-11-27T08:25:55Z</time>
      </trkpt>
      <trkpt lat="43.52217" lon="6.28825">
        <ele>266.9</ele>
        <time>2015-11-27T08:25:58Z</time>
      </trkpt>
      <trkpt lat="43.52219" lon="6.2882">
        <ele>267.38</ele>
        <time>2015-11-27T08:26:01Z</time>
      </trkpt>
      <trkpt lat="43.52224" lon="6.28813">
        <ele>268.35</ele>
        <time>2015-11-27T08:26:07Z</time>
      </trkpt>
      <trkpt lat="43.52225" lon="6.2881">
        <ele>268.83</ele>
        <time>2015-11-27T08:26:09Z</time>
      </trkpt>
      <trkpt lat="43.52228" lon="6.28806">
        <ele>269.31</ele>
        <time>2015-11-27T08:26:12Z</time>
      </trkpt>
      <trkpt lat="43.52234" lon="6.28801">
        <ele>269.79</ele>
        <time>2015-11-27T08:26:17Z</time>
      </trkpt>
      <trkpt lat="43.52246" lon="6.28788">
        <ele>272.19</ele>
        <time>2015-11-27T08:26:30Z</time>
      </trkpt>
      <trkpt lat="43.5225" lon="6.28781">
        <ele>273.15</ele>
        <time>2015-11-27T08:26:36Z</time>
      </trkpt>
      <trkpt lat="43.52263" lon="6.28771">
        <ele>275.07</ele>
        <time>2015-11-27T08:26:48Z</time>
      </trkpt>
      <trkpt lat="43.52273" lon="6.28758">
        <ele>277</ele>
        <time>2015-11-27T08:27:01Z</time>
      </trkpt>
      <trkpt lat="43.52283" lon="6.2875">
        <ele>278.44</ele>
        <time>2015-11-27T08:27:12Z</time>
      </trkpt>
      <trkpt lat="43.52288" lon="6.28747">
        <ele>279.4</ele>
        <time>2015-11-27T08:27:17Z</time>
      </trkpt>
      <trkpt lat="43.52293" lon="6.2874">
        <ele>279.88</ele>
        <time>2015-11-27T08:27:21Z</time>
      </trkpt>
      <trkpt lat="43.52304" lon="6.28731">
        <ele>281.8</ele>
        <time>2015-11-27T08:27:34Z</time>
      </trkpt>
      <trkpt lat="43.52306" lon="6.28728">
        <ele>281.8</ele>
        <time>2015-11-27T08:27:36Z</time>
      </trkpt>
      <trkpt lat="43.52316" lon="6.28708">
        <ele>283.25</ele>
        <time>2015-11-27T08:27:49Z</time>
      </trkpt>
      <trkpt lat="43.52326" lon="6.28697">
        <ele>284.21</ele>
        <time>2015-11-27T08:28:00Z</time>
      </trkpt>
      <trkpt lat="43.52339" lon="6.2868">
        <ele>287.09</ele>
        <time>2015-11-27T08:28:14Z</time>
      </trkpt>
      <trkpt lat="43.52341" lon="6.28675">
        <ele>287.09</ele>
        <time>2015-11-27T08:28:18Z</time>
      </trkpt>
      <trkpt lat="43.52347" lon="6.28666">
        <ele>288.05</ele>
        <time>2015-11-27T08:28:24Z</time>
      </trkpt>
      <trkpt lat="43.52364" lon="6.28643">
        <ele>289.49</ele>
        <time>2015-11-27T08:28:39Z</time>
      </trkpt>
      <trkpt lat="43.52365" lon="6.28642">
        <ele>289.97</ele>
        <time>2015-11-27T08:28:40Z</time>
      </trkpt>
      <trkpt lat="43.52364" lon="6.28621">
        <ele>291.42</ele>
        <time>2015-11-27T08:28:53Z</time>
      </trkpt>
      <trkpt lat="43.52367" lon="6.28612">
        <ele>291.9</ele>
        <time>2015-11-27T08:29:11Z</time>
      </trkpt>
      <trkpt lat="43.52368" lon="6.28609">
        <ele>291.9</ele>
        <time>2015-11-27T08:29:14Z</time>
      </trkpt>
      <trkpt lat="43.52371" lon="6.28607">
        <ele>291.9</ele>
        <time>2015-11-27T08:29:24Z</time>
      </trkpt>
      <trkpt lat="43.52373" lon="6.28603">
        <ele>291.9</ele>
        <time>2015-11-27T08:29:27Z</time>
      </trkpt>
      <trkpt lat="43.52385" lon="6.28576">
        <ele>292.86</ele>
        <time>2015-11-27T08:29:42Z</time>
      </trkpt>
      <trkpt lat="43.52388" lon="6.28559">
        <ele>292.86</ele>
        <time>2015-11-27T08:29:50Z</time>
      </trkpt>
      <trkpt lat="43.52395" lon="6.28535">
        <ele>292.38</ele>
        <time>2015-11-27T08:30:04Z</time>
      </trkpt>
      <trkpt lat="43.524" lon="6.28507">
        <ele>291.9</ele>
        <time>2015-11-27T08:30:18Z</time>
      </trkpt>
      <trkpt lat="43.52402" lon="6.28497">
        <ele>291.42</ele>
        <time>2015-11-27T08:30:23Z</time>
      </trkpt>
      <trkpt lat="43.52412" lon="6.2847">
        <ele>289.97</ele>
        <time>2015-11-27T08:30:38Z</time>
      </trkpt>
      <trkpt lat="43.5242" lon="6.2845">
        <ele>288.53</ele>
        <time>2015-11-27T08:30:48Z</time>
      </trkpt>
      <trkpt lat="43.52426" lon="6.28439">
        <ele>287.57</ele>
        <time>2015-11-27T08:30:56Z</time>
      </trkpt>
      <trkpt lat="43.52433" lon="6.28422">
        <ele>286.61</ele>
        <time>2015-11-27T08:31:08Z</time>
      </trkpt>
      <trkpt lat="43.52439" lon="6.28411">
        <ele>285.65</ele>
        <time>2015-11-27T08:31:15Z</time>
      </trkpt>
      <trkpt lat="43.52444" lon="6.28402">
        <ele>285.17</ele>
        <time>2015-11-27T08:31:20Z</time>
      </trkpt>
      <trkpt lat="43.52457" lon="6.28382">
        <ele>283.25</ele>
        <time>2015-11-27T08:31:35Z</time>
      </trkpt>
      <trkpt lat="43.5246" lon="6.28379">
        <ele>282.77</ele>
        <time>2015-11-27T08:31:37Z</time>
      </trkpt>
      <trkpt lat="43.52466" lon="6.2837">
        <ele>282.28</ele>
        <time>2015-11-27T08:31:45Z</time>
      </trkpt>
      <trkpt lat="43.5248" lon="6.2834">
        <ele>281.32</ele>
        <time>2015-11-27T08:32:01Z</time>
      </trkpt>
      <trkpt lat="43.52498" lon="6.28329">
        <ele>281.32</ele>
        <time>2015-11-27T08:32:16Z</time>
      </trkpt>
      <trkpt lat="43.52517" lon="6.28323">
        <ele>280.84</ele>
        <time>2015-11-27T08:32:30Z</time>
      </trkpt>
      <trkpt lat="43.52526" lon="6.28325">
        <ele>280.84</ele>
        <time>2015-11-27T08:32:38Z</time>
      </trkpt>
      <trkpt lat="43.52531" lon="6.28328">
        <ele>280.84</ele>
        <time>2015-11-27T08:32:43Z</time>
      </trkpt>
      <trkpt lat="43.52544" lon="6.28333">
        <ele>280.84</ele>
        <time>2015-11-27T08:32:58Z</time>
      </trkpt>
      <trkpt lat="43.52546" lon="6.28334">
        <ele>280.84</ele>
        <time>2015-11-27T08:33:11Z</time>
      </trkpt>
      <trkpt lat="43.52546" lon="6.28336">
        <ele>280.84</ele>
        <time>2015-11-27T08:33:25Z</time>
      </trkpt>
      <trkpt lat="43.52548" lon="6.28338">
        <ele>280.84</ele>
        <time>2015-11-27T08:33:34Z</time>
      </trkpt>
      <trkpt lat="43.52547" lon="6.28343">
        <ele>280.84</ele>
        <time>2015-11-27T08:33:38Z</time>
      </trkpt>
      <trkpt lat="43.52553" lon="6.28359">
        <ele>281.32</ele>
        <time>2015-11-27T08:33:50Z</time>
      </trkpt>
      <trkpt lat="43.52562" lon="6.2838">
        <ele>282.77</ele>
        <time>2015-11-27T08:34:05Z</time>
      </trkpt>
      <trkpt lat="43.52566" lon="6.28382">
        <ele>282.77</ele>
        <time>2015-11-27T08:34:18Z</time>
      </trkpt>
      <trkpt lat="43.52569" lon="6.2838">
        <ele>282.77</ele>
        <time>2015-11-27T08:34:23Z</time>
      </trkpt>
      <trkpt lat="43.5258" lon="6.28375">
        <ele>282.77</ele>
        <time>2015-11-27T08:34:29Z</time>
      </trkpt>
      <trkpt lat="43.52583" lon="6.28374">
        <ele>284.69</ele>
        <time>2015-11-27T08:34:31Z</time>
      </trkpt>
      <trkpt lat="43.52602" lon="6.2838">
        <ele>282.77</ele>
        <time>2015-11-27T08:34:42Z</time>
      </trkpt>
      <trkpt lat="43.52625" lon="6.28397">
        <ele>283.25</ele>
        <time>2015-11-27T08:34:58Z</time>
      </trkpt>
      <trkpt lat="43.52644" lon="6.28415">
        <ele>283.73</ele>
        <time>2015-11-27T08:35:13Z</time>
      </trkpt>
      <trkpt lat="43.52664" lon="6.28432">
        <ele>284.69</ele>
        <time>2015-11-27T08:35:29Z</time>
      </trkpt>
      <trkpt lat="43.52685" lon="6.28445">
        <ele>285.65</ele>
        <time>2015-11-27T08:35:45Z</time>
      </trkpt>
      <trkpt lat="43.52696" lon="6.28454">
        <ele>286.13</ele>
        <time>2015-11-27T08:35:54Z</time>
      </trkpt>
      <trkpt lat="43.52707" lon="6.28463">
        <ele>286.13</ele>
        <time>2015-11-27T08:36:03Z</time>
      </trkpt>
      <trkpt lat="43.52722" lon="6.28474">
        <ele>287.09</ele>
        <time>2015-11-27T08:36:17Z</time>
      </trkpt>
      <trkpt lat="43.52722" lon="6.28474">
        <ele>286.61</ele>
        <time>2015-11-27T08:36:25Z</time>
      </trkpt>
      <trkpt lat="43.52729" lon="6.28479">
        <ele>287.09</ele>
        <time>2015-11-27T08:36:33Z</time>
      </trkpt>
      <trkpt lat="43.52739" lon="6.28487">
        <ele>287.57</ele>
        <time>2015-11-27T08:36:41Z</time>
      </trkpt>
      <trkpt lat="43.52757" lon="6.28502">
        <ele>288.05</ele>
        <time>2015-11-27T08:36:55Z</time>
      </trkpt>
      <trkpt lat="43.52762" lon="6.28505">
        <ele>288.05</ele>
        <time>2015-11-27T08:36:59Z</time>
      </trkpt>
      <trkpt lat="43.52769" lon="6.2851">
        <ele>288.53</ele>
        <time>2015-11-27T08:37:04Z</time>
      </trkpt>
      <trkpt lat="43.5279" lon="6.28535">
        <ele>289.97</ele>
        <time>2015-11-27T08:37:23Z</time>
      </trkpt>
      <trkpt lat="43.52804" lon="6.28552">
        <ele>291.42</ele>
        <time>2015-11-27T08:37:37Z</time>
      </trkpt>
      <trkpt lat="43.5282" lon="6.28576">
        <ele>292.86</ele>
        <time>2015-11-27T08:37:52Z</time>
      </trkpt>
      <trkpt lat="43.52837" lon="6.28596">
        <ele>294.3</ele>
        <time>2015-11-27T08:38:07Z</time>
      </trkpt>
      <trkpt lat="43.52857" lon="6.28606">
        <ele>295.74</ele>
        <time>2015-11-27T08:38:20Z</time>
      </trkpt>
      <trkpt lat="43.52875" lon="6.28613">
        <ele>297.18</ele>
        <time>2015-11-27T08:38:34Z</time>
      </trkpt>
      <trkpt lat="43.52893" lon="6.28616">
        <ele>298.63</ele>
        <time>2015-11-27T08:38:47Z</time>
      </trkpt>
      <trkpt lat="43.52918" lon="6.28612">
        <ele>299.59</ele>
        <time>2015-11-27T08:39:03Z</time>
      </trkpt>
      <trkpt lat="43.52941" lon="6.28606">
        <ele>301.03</ele>
        <time>2015-11-27T08:39:17Z</time>
      </trkpt>
      <trkpt lat="43.52959" lon="6.28604">
        <ele>301.51</ele>
        <time>2015-11-27T08:39:30Z</time>
      </trkpt>
      <trkpt lat="43.52983" lon="6.28604">
        <ele>302.47</ele>
        <time>2015-11-27T08:39:45Z</time>
      </trkpt>
      <trkpt lat="43.53004" lon="6.2861">
        <ele>303.91</ele>
        <time>2015-11-27T08:39:59Z</time>
      </trkpt>
      <trkpt lat="43.53031" lon="6.28621">
        <ele>303.91</ele>
        <time>2015-11-27T08:40:15Z</time>
      </trkpt>
      <trkpt lat="43.53051" lon="6.28633">
        <ele>303.91</ele>
        <time>2015-11-27T08:40:30Z</time>
      </trkpt>
      <trkpt lat="43.53071" lon="6.28647">
        <ele>304.39</ele>
        <time>2015-11-27T08:40:46Z</time>
      </trkpt>
      <trkpt lat="43.53093" lon="6.28658">
        <ele>306.32</ele>
        <time>2015-11-27T08:41:03Z</time>
      </trkpt>
      <trkpt lat="43.53108" lon="6.28657">
        <ele>307.28</ele>
        <time>2015-11-27T08:41:13Z</time>
      </trkpt>
      <trkpt lat="43.53114" lon="6.28657">
        <ele>307.76</ele>
        <time>2015-11-27T08:41:17Z</time>
      </trkpt>
      <trkpt lat="43.53136" lon="6.28658">
        <ele>308.72</ele>
        <time>2015-11-27T08:41:31Z</time>
      </trkpt>
      <trkpt lat="43.53149" lon="6.28661">
        <ele>309.68</ele>
        <time>2015-11-27T08:41:41Z</time>
      </trkpt>
      <trkpt lat="43.53164" lon="6.28668">
        <ele>310.64</ele>
        <time>2015-11-27T08:41:51Z</time>
      </trkpt>
      <trkpt lat="43.53185" lon="6.28681">
        <ele>312.57</ele>
        <time>2015-11-27T08:42:07Z</time>
      </trkpt>
      <trkpt lat="43.53207" lon="6.2869">
        <ele>314.01</ele>
        <time>2015-11-27T08:42:22Z</time>
      </trkpt>
      <trkpt lat="43.53229" lon="6.28702">
        <ele>315.45</ele>
        <time>2015-11-27T08:42:38Z</time>
      </trkpt>
      <trkpt lat="43.53252" lon="6.2872">
        <ele>316.89</ele>
        <time>2015-11-27T08:42:56Z</time>
      </trkpt>
      <trkpt lat="43.53267" lon="6.28731">
        <ele>318.33</ele>
        <time>2015-11-27T08:43:09Z</time>
      </trkpt>
      <trkpt lat="43.53291" lon="6.2874">
        <ele>319.78</ele>
        <time>2015-11-27T08:43:24Z</time>
      </trkpt>
      <trkpt lat="43.53314" lon="6.28727">
        <ele>321.22</ele>
        <time>2015-11-27T08:43:41Z</time>
      </trkpt>
      <trkpt lat="43.53335" lon="6.28715">
        <ele>323.14</ele>
        <time>2015-11-27T08:43:57Z</time>
      </trkpt>
      <trkpt lat="43.53359" lon="6.287">
        <ele>324.58</ele>
        <time>2015-11-27T08:44:14Z</time>
      </trkpt>
      <trkpt lat="43.53383" lon="6.2869">
        <ele>326.99</ele>
        <time>2015-11-27T08:44:31Z</time>
      </trkpt>
      <trkpt lat="43.53403" lon="6.28675">
        <ele>328.43</ele>
        <time>2015-11-27T08:44:46Z</time>
      </trkpt>
      <trkpt lat="43.53418" lon="6.28664">
        <ele>329.39</ele>
        <time>2015-11-27T08:44:58Z</time>
      </trkpt>
      <trkpt lat="43.53431" lon="6.2866">
        <ele>331.79</ele>
        <time>2015-11-27T08:45:13Z</time>
      </trkpt>
      <trkpt lat="43.53434" lon="6.28659">
        <ele>332.27</ele>
        <time>2015-11-27T08:45:20Z</time>
      </trkpt>
      <trkpt lat="43.53455" lon="6.28652">
        <ele>335.16</ele>
        <time>2015-11-27T08:45:37Z</time>
      </trkpt>
      <trkpt lat="43.53474" lon="6.28644">
        <ele>337.56</ele>
        <time>2015-11-27T08:45:52Z</time>
      </trkpt>
      <trkpt lat="43.53476" lon="6.28643">
        <ele>337.08</ele>
        <time>2015-11-27T08:45:53Z</time>
      </trkpt>
      <trkpt lat="43.53492" lon="6.28633">
        <ele>339.48</ele>
        <time>2015-11-27T08:46:04Z</time>
      </trkpt>
      <trkpt lat="43.53511" lon="6.28647">
        <ele>341.89</ele>
        <time>2015-11-27T08:46:18Z</time>
      </trkpt>
      <trkpt lat="43.53527" lon="6.28661">
        <ele>344.29</ele>
        <time>2015-11-27T08:46:33Z</time>
      </trkpt>
      <trkpt lat="43.53542" lon="6.28679">
        <ele>346.69</ele>
        <time>2015-11-27T08:46:47Z</time>
      </trkpt>
      <trkpt lat="43.53559" lon="6.28699">
        <ele>349.58</ele>
        <time>2015-11-27T08:47:03Z</time>
      </trkpt>
      <trkpt lat="43.53571" lon="6.28726">
        <ele>352.46</ele>
        <time>2015-11-27T08:47:20Z</time>
      </trkpt>
      <trkpt lat="43.53582" lon="6.28749">
        <ele>355.34</ele>
        <time>2015-11-27T08:47:35Z</time>
      </trkpt>
      <trkpt lat="43.53593" lon="6.28776">
        <ele>356.31</ele>
        <time>2015-11-27T08:47:51Z</time>
      </trkpt>
      <trkpt lat="43.53598" lon="6.28791">
        <ele>356.31</ele>
        <time>2015-11-27T08:47:59Z</time>
      </trkpt>
      <trkpt lat="43.5361" lon="6.28818">
        <ele>357.27</ele>
        <time>2015-11-27T08:48:15Z</time>
      </trkpt>
      <trkpt lat="43.5362" lon="6.28847">
        <ele>358.23</ele>
        <time>2015-11-27T08:48:31Z</time>
      </trkpt>
      <trkpt lat="43.53627" lon="6.28868">
        <ele>359.67</ele>
        <time>2015-11-27T08:48:43Z</time>
      </trkpt>
      <trkpt lat="43.53633" lon="6.28887">
        <ele>361.59</ele>
        <time>2015-11-27T08:48:54Z</time>
      </trkpt>
      <trkpt lat="43.53648" lon="6.28907">
        <ele>364</ele>
        <time>2015-11-27T08:49:10Z</time>
      </trkpt>
      <trkpt lat="43.53662" lon="6.28924">
        <ele>365.92</ele>
        <time>2015-11-27T08:49:24Z</time>
      </trkpt>
      <trkpt lat="43.53667" lon="6.28928">
        <ele>366.88</ele>
        <time>2015-11-27T08:49:36Z</time>
      </trkpt>
      <trkpt lat="43.53668" lon="6.28931">
        <ele>366.88</ele>
        <time>2015-11-27T08:49:44Z</time>
      </trkpt>
      <trkpt lat="43.53671" lon="6.28935">
        <ele>367.84</ele>
        <time>2015-11-27T08:49:48Z</time>
      </trkpt>
      <trkpt lat="43.53684" lon="6.28934">
        <ele>370.24</ele>
        <time>2015-11-27T08:50:00Z</time>
      </trkpt>
      <trkpt lat="43.53687" lon="6.2893">
        <ele>370.73</ele>
        <time>2015-11-27T08:50:02Z</time>
      </trkpt>
      <trkpt lat="43.53692" lon="6.28912">
        <ele>372.17</ele>
        <time>2015-11-27T08:50:18Z</time>
      </trkpt>
      <trkpt lat="43.53695" lon="6.28906">
        <ele>372.65</ele>
        <time>2015-11-27T08:50:45Z</time>
      </trkpt>
      <trkpt lat="43.53696" lon="6.28903">
        <ele>372.65</ele>
        <time>2015-11-27T08:50:47Z</time>
      </trkpt>
      <trkpt lat="43.53699" lon="6.28897">
        <ele>373.13</ele>
        <time>2015-11-27T08:50:51Z</time>
      </trkpt>
      <trkpt lat="43.53703" lon="6.28892">
        <ele>373.61</ele>
        <time>2015-11-27T08:50:55Z</time>
      </trkpt>
      <trkpt lat="43.53711" lon="6.2887">
        <ele>374.09</ele>
        <time>2015-11-27T08:51:07Z</time>
      </trkpt>
      <trkpt lat="43.53724" lon="6.28843">
        <ele>374.09</ele>
        <time>2015-11-27T08:51:22Z</time>
      </trkpt>
      <trkpt lat="43.53732" lon="6.28828">
        <ele>374.57</ele>
        <time>2015-11-27T08:51:31Z</time>
      </trkpt>
      <trkpt lat="43.53734" lon="6.28812">
        <ele>374.09</ele>
        <time>2015-11-27T08:51:39Z</time>
      </trkpt>
      <trkpt lat="43.53734" lon="6.28808">
        <ele>374.09</ele>
        <time>2015-11-27T08:51:41Z</time>
      </trkpt>
      <trkpt lat="43.53736" lon="6.28799">
        <ele>374.09</ele>
        <time>2015-11-27T08:51:46Z</time>
      </trkpt>
      <trkpt lat="43.53743" lon="6.28785">
        <ele>373.61</ele>
        <time>2015-11-27T08:51:54Z</time>
      </trkpt>
      <trkpt lat="43.53759" lon="6.28783">
        <ele>374.09</ele>
        <time>2015-11-27T08:52:08Z</time>
      </trkpt>
      <trkpt lat="43.53761" lon="6.28783">
        <ele>374.09</ele>
        <time>2015-11-27T08:52:10Z</time>
      </trkpt>
      <trkpt lat="43.53774" lon="6.28781">
        <ele>375.53</ele>
        <time>2015-11-27T08:52:22Z</time>
      </trkpt>
      <trkpt lat="43.53785" lon="6.28784">
        <ele>376.01</ele>
        <time>2015-11-27T08:52:32Z</time>
      </trkpt>
      <trkpt lat="43.53791" lon="6.28784">
        <ele>376.49</ele>
        <time>2015-11-27T08:52:36Z</time>
      </trkpt>
      <trkpt lat="43.53809" lon="6.28787">
        <ele>376.97</ele>
        <time>2015-11-27T08:52:46Z</time>
      </trkpt>
      <trkpt lat="43.53815" lon="6.28791">
        <ele>377.45</ele>
        <time>2015-11-27T08:52:51Z</time>
      </trkpt>
      <trkpt lat="43.53826" lon="6.28804">
        <ele>378.42</ele>
        <time>2015-11-27T08:53:01Z</time>
      </trkpt>
      <trkpt lat="43.5383" lon="6.28809">
        <ele>378.42</ele>
        <time>2015-11-27T08:53:05Z</time>
      </trkpt>
      <trkpt lat="43.53836" lon="6.2881">
        <ele>378.9</ele>
        <time>2015-11-27T08:53:10Z</time>
      </trkpt>
      <trkpt lat="43.53849" lon="6.28806">
        <ele>379.38</ele>
        <time>2015-11-27T08:53:19Z</time>
      </trkpt>
      <trkpt lat="43.53865" lon="6.28806">
        <ele>380.34</ele>
        <time>2015-11-27T08:53:31Z</time>
      </trkpt>
      <trkpt lat="43.53871" lon="6.28807">
        <ele>380.82</ele>
        <time>2015-11-27T08:53:40Z</time>
      </trkpt>
      <trkpt lat="43.53875" lon="6.28806">
        <ele>380.82</ele>
        <time>2015-11-27T08:53:43Z</time>
      </trkpt>
      <trkpt lat="43.53896" lon="6.28798">
        <ele>381.78</ele>
        <time>2015-11-27T08:53:59Z</time>
      </trkpt>
      <trkpt lat="43.53911" lon="6.28787">
        <ele>382.26</ele>
        <time>2015-11-27T08:54:10Z</time>
      </trkpt>
      <trkpt lat="43.53916" lon="6.28786">
        <ele>382.74</ele>
        <time>2015-11-27T08:54:15Z</time>
      </trkpt>
      <trkpt lat="43.53924" lon="6.28787">
        <ele>383.22</ele>
        <time>2015-11-27T08:54:20Z</time>
      </trkpt>
      <trkpt lat="43.53944" lon="6.28784">
        <ele>383.7</ele>
        <time>2015-11-27T08:54:35Z</time>
      </trkpt>
      <trkpt lat="43.53964" lon="6.28772">
        <ele>384.18</ele>
        <time>2015-11-27T08:54:50Z</time>
      </trkpt>
      <trkpt lat="43.53984" lon="6.28757">
        <ele>385.15</ele>
        <time>2015-11-27T08:55:05Z</time>
      </trkpt>
      <trkpt lat="43.54" lon="6.28745">
        <ele>386.11</ele>
        <time>2015-11-27T08:55:20Z</time>
      </trkpt>
      <trkpt lat="43.54008" lon="6.28733">
        <ele>386.59</ele>
        <time>2015-11-27T08:55:29Z</time>
      </trkpt>
      <trkpt lat="43.54012" lon="6.28715">
        <ele>387.55</ele>
        <time>2015-11-27T08:55:44Z</time>
      </trkpt>
      <trkpt lat="43.54013" lon="6.28711">
        <ele>388.03</ele>
        <time>2015-11-27T08:55:49Z</time>
      </trkpt>
      <trkpt lat="43.54012" lon="6.28695">
        <ele>388.03</ele>
        <time>2015-11-27T08:56:01Z</time>
      </trkpt>
      <trkpt lat="43.54012" lon="6.28689">
        <ele>388.03</ele>
        <time>2015-11-27T08:56:04Z</time>
      </trkpt>
      <trkpt lat="43.54018" lon="6.28673">
        <ele>388.51</ele>
        <time>2015-11-27T08:56:18Z</time>
      </trkpt>
      <trkpt lat="43.54028" lon="6.28656">
        <ele>389.95</ele>
        <time>2015-11-27T08:56:33Z</time>
      </trkpt>
      <trkpt lat="43.54031" lon="6.28651">
        <ele>389.47</ele>
        <time>2015-11-27T08:56:46Z</time>
      </trkpt>
      <trkpt lat="43.54031" lon="6.28648">
        <ele>389.47</ele>
        <time>2015-11-27T08:56:57Z</time>
      </trkpt>
      <trkpt lat="43.54034" lon="6.28641">
        <ele>388.99</ele>
        <time>2015-11-27T08:57:01Z</time>
      </trkpt>
      <trkpt lat="43.54036" lon="6.28636">
        <ele>388.51</ele>
        <time>2015-11-27T08:57:04Z</time>
      </trkpt>
      <trkpt lat="43.5404" lon="6.28629">
        <ele>387.55</ele>
        <time>2015-11-27T08:57:09Z</time>
      </trkpt>
      <trkpt lat="43.5404" lon="6.28604">
        <ele>387.55</ele>
        <time>2015-11-27T08:57:23Z</time>
      </trkpt>
      <trkpt lat="43.5404" lon="6.28603">
        <ele>387.55</ele>
        <time>2015-11-27T08:57:24Z</time>
      </trkpt>
      <trkpt lat="43.54037" lon="6.28593">
        <ele>388.51</ele>
        <time>2015-11-27T08:57:30Z</time>
      </trkpt>
      <trkpt lat="43.54019" lon="6.2858">
        <ele>388.51</ele>
        <time>2015-11-27T08:57:43Z</time>
      </trkpt>
      <trkpt lat="43.54018" lon="6.28579">
        <ele>388.51</ele>
        <time>2015-11-27T08:57:44Z</time>
      </trkpt>
      <trkpt lat="43.54009" lon="6.28564">
        <ele>388.51</ele>
        <time>2015-11-27T08:57:53Z</time>
      </trkpt>
      <trkpt lat="43.53997" lon="6.28544">
        <ele>389.95</ele>
        <time>2015-11-27T08:58:06Z</time>
      </trkpt>
      <trkpt lat="43.53996" lon="6.28543">
        <ele>389.95</ele>
        <time>2015-11-27T08:58:07Z</time>
      </trkpt>
      <trkpt lat="43.53978" lon="6.28526">
        <ele>391.39</ele>
        <time>2015-11-27T08:58:23Z</time>
      </trkpt>
      <trkpt lat="43.53958" lon="6.28514">
        <ele>390.43</ele>
        <time>2015-11-27T08:58:38Z</time>
      </trkpt>
      <trkpt lat="43.53936" lon="6.285">
        <ele>389.95</ele>
        <time>2015-11-27T08:58:51Z</time>
      </trkpt>
      <trkpt lat="43.53921" lon="6.28491">
        <ele>389.47</ele>
        <time>2015-11-27T08:59:02Z</time>
      </trkpt>
      <trkpt lat="43.53904" lon="6.28481">
        <ele>389.95</ele>
        <time>2015-11-27T08:59:15Z</time>
      </trkpt>
      <trkpt lat="43.53894" lon="6.28476">
        <ele>390.43</ele>
        <time>2015-11-27T08:59:23Z</time>
      </trkpt>
      <trkpt lat="43.53873" lon="6.28461">
        <ele>391.39</ele>
        <time>2015-11-27T08:59:39Z</time>
      </trkpt>
      <trkpt lat="43.53849" lon="6.28453">
        <ele>391.39</ele>
        <time>2015-11-27T08:59:54Z</time>
      </trkpt>
      <trkpt lat="43.53836" lon="6.28449">
        <ele>391.39</ele>
        <time>2015-11-27T09:00:03Z</time>
      </trkpt>
      <trkpt lat="43.53818" lon="6.2844">
        <ele>391.39</ele>
        <time>2015-11-27T09:00:16Z</time>
      </trkpt>
      <trkpt lat="43.53813" lon="6.28437">
        <ele>391.39</ele>
        <time>2015-11-27T09:00:25Z</time>
      </trkpt>
      <trkpt lat="43.53798" lon="6.28418">
        <ele>392.84</ele>
        <time>2015-11-27T09:00:41Z</time>
      </trkpt>
      <trkpt lat="43.53794" lon="6.28411">
        <ele>392.84</ele>
        <time>2015-11-27T09:00:46Z</time>
      </trkpt>
      <trkpt lat="43.53789" lon="6.28398">
        <ele>392.84</ele>
        <time>2015-11-27T09:00:54Z</time>
      </trkpt>
      <trkpt lat="43.53786" lon="6.2839">
        <ele>392.84</ele>
        <time>2015-11-27T09:00:58Z</time>
      </trkpt>
      <trkpt lat="43.53781" lon="6.2837">
        <ele>392.84</ele>
        <time>2015-11-27T09:01:09Z</time>
      </trkpt>
      <trkpt lat="43.53776" lon="6.28356">
        <ele>391.87</ele>
        <time>2015-11-27T09:01:18Z</time>
      </trkpt>
      <trkpt lat="43.53776" lon="6.28347">
        <ele>391.87</ele>
        <time>2015-11-27T09:01:26Z</time>
      </trkpt>
      <trkpt lat="43.53776" lon="6.28343">
        <ele>391.87</ele>
        <time>2015-11-27T09:01:29Z</time>
      </trkpt>
      <trkpt lat="43.53776" lon="6.28337">
        <ele>391.87</ele>
        <time>2015-11-27T09:01:32Z</time>
      </trkpt>
      <trkpt lat="43.53778" lon="6.28318">
        <ele>391.87</ele>
        <time>2015-11-27T09:01:41Z</time>
      </trkpt>
      <trkpt lat="43.53784" lon="6.28306">
        <ele>391.87</ele>
        <time>2015-11-27T09:01:49Z</time>
      </trkpt>
      <trkpt lat="43.53784" lon="6.28303">
        <ele>392.84</ele>
        <time>2015-11-27T09:01:51Z</time>
      </trkpt>
      <trkpt lat="43.53791" lon="6.2829">
        <ele>391.87</ele>
        <time>2015-11-27T09:01:59Z</time>
      </trkpt>
      <trkpt lat="43.53802" lon="6.28266">
        <ele>392.84</ele>
        <time>2015-11-27T09:02:14Z</time>
      </trkpt>
      <trkpt lat="43.53807" lon="6.28255">
        <ele>392.84</ele>
        <time>2015-11-27T09:02:20Z</time>
      </trkpt>
      <trkpt lat="43.53812" lon="6.28244">
        <ele>393.8</ele>
        <time>2015-11-27T09:02:25Z</time>
      </trkpt>
      <trkpt lat="43.53819" lon="6.28219">
        <ele>394.76</ele>
        <time>2015-11-27T09:02:38Z</time>
      </trkpt>
      <trkpt lat="43.53827" lon="6.28195">
        <ele>395.24</ele>
        <time>2015-11-27T09:02:52Z</time>
      </trkpt>
      <trkpt lat="43.53831" lon="6.28188">
        <ele>395.72</ele>
        <time>2015-11-27T09:02:56Z</time>
      </trkpt>
      <trkpt lat="43.53846" lon="6.2817">
        <ele>396.2</ele>
        <time>2015-11-27T09:03:10Z</time>
      </trkpt>
      <trkpt lat="43.53855" lon="6.28159">
        <ele>396.2</ele>
        <time>2015-11-27T09:03:19Z</time>
      </trkpt>
      <trkpt lat="43.53869" lon="6.28147">
        <ele>397.64</ele>
        <time>2015-11-27T09:03:33Z</time>
      </trkpt>
      <trkpt lat="43.53881" lon="6.28138">
        <ele>399.57</ele>
        <time>2015-11-27T09:03:43Z</time>
      </trkpt>
      <trkpt lat="43.53901" lon="6.28126">
        <ele>402.45</ele>
        <time>2015-11-27T09:03:58Z</time>
      </trkpt>
      <trkpt lat="43.53906" lon="6.28117">
        <ele>403.41</ele>
        <time>2015-11-27T09:04:03Z</time>
      </trkpt>
      <trkpt lat="43.53909" lon="6.2811">
        <ele>402.93</ele>
        <time>2015-11-27T09:04:06Z</time>
      </trkpt>
      <trkpt lat="43.53917" lon="6.28092">
        <ele>402.45</ele>
        <time>2015-11-27T09:04:15Z</time>
      </trkpt>
      <trkpt lat="43.53918" lon="6.28083">
        <ele>402.45</ele>
        <time>2015-11-27T09:04:19Z</time>
      </trkpt>
      <trkpt lat="43.53922" lon="6.28067">
        <ele>401.97</ele>
        <time>2015-11-27T09:04:27Z</time>
      </trkpt>
      <trkpt lat="43.53928" lon="6.28039">
        <ele>401.97</ele>
        <time>2015-11-27T09:04:41Z</time>
      </trkpt>
      <trkpt lat="43.53932" lon="6.28011">
        <ele>401.49</ele>
        <time>2015-11-27T09:04:56Z</time>
      </trkpt>
      <trkpt lat="43.53935" lon="6.28001">
        <ele>401.97</ele>
        <time>2015-11-27T09:05:01Z</time>
      </trkpt>
      <trkpt lat="43.53937" lon="6.27986">
        <ele>401.49</ele>
        <time>2015-11-27T09:05:09Z</time>
      </trkpt>
      <trkpt lat="43.5394" lon="6.27964">
        <ele>401.01</ele>
        <time>2015-11-27T09:05:20Z</time>
      </trkpt>
      <trkpt lat="43.53946" lon="6.27937">
        <ele>400.53</ele>
        <time>2015-11-27T09:05:34Z</time>
      </trkpt>
      <trkpt lat="43.53951" lon="6.27911">
        <ele>399.57</ele>
        <time>2015-11-27T09:05:47Z</time>
      </trkpt>
      <trkpt lat="43.53956" lon="6.279">
        <ele>399.57</ele>
        <time>2015-11-27T09:05:53Z</time>
      </trkpt>
      <trkpt lat="43.53958" lon="6.27893">
        <ele>399.08</ele>
        <time>2015-11-27T09:05:57Z</time>
      </trkpt>
      <trkpt lat="43.53963" lon="6.27879">
        <ele>399.08</ele>
        <time>2015-11-27T09:06:05Z</time>
      </trkpt>
      <trkpt lat="43.53964" lon="6.27873">
        <ele>399.08</ele>
        <time>2015-11-27T09:06:08Z</time>
      </trkpt>
      <trkpt lat="43.53966" lon="6.27844">
        <ele>399.08</ele>
        <time>2015-11-27T09:06:22Z</time>
      </trkpt>
      <trkpt lat="43.5397" lon="6.27821">
        <ele>398.12</ele>
        <time>2015-11-27T09:06:34Z</time>
      </trkpt>
      <trkpt lat="43.53971" lon="6.27796">
        <ele>397.16</ele>
        <time>2015-11-27T09:06:46Z</time>
      </trkpt>
      <trkpt lat="43.5397" lon="6.2779">
        <ele>397.16</ele>
        <time>2015-11-27T09:06:49Z</time>
      </trkpt>
      <trkpt lat="43.53969" lon="6.27787">
        <ele>397.16</ele>
        <time>2015-11-27T09:06:51Z</time>
      </trkpt>
      <trkpt lat="43.5397" lon="6.27758">
        <ele>396.2</ele>
        <time>2015-11-27T09:07:06Z</time>
      </trkpt>
      <trkpt lat="43.53969" lon="6.27754">
        <ele>396.2</ele>
        <time>2015-11-27T09:07:08Z</time>
      </trkpt>
      <trkpt lat="43.53968" lon="6.27741">
        <ele>396.2</ele>
        <time>2015-11-27T09:07:16Z</time>
      </trkpt>
      <trkpt lat="43.53969" lon="6.27725">
        <ele>396.2</ele>
        <time>2015-11-27T09:07:23Z</time>
      </trkpt>
      <trkpt lat="43.53969" lon="6.27697">
        <ele>396.2</ele>
        <time>2015-11-27T09:07:37Z</time>
      </trkpt>
      <trkpt lat="43.53971" lon="6.27676">
        <ele>396.68</ele>
        <time>2015-11-27T09:07:49Z</time>
      </trkpt>
      <trkpt lat="43.5397" lon="6.27667">
        <ele>397.16</ele>
        <time>2015-11-27T09:07:54Z</time>
      </trkpt>
      <trkpt lat="43.53971" lon="6.27657">
        <ele>397.16</ele>
        <time>2015-11-27T09:08:00Z</time>
      </trkpt>
      <trkpt lat="43.53969" lon="6.2763">
        <ele>397.64</ele>
        <time>2015-11-27T09:08:14Z</time>
      </trkpt>
      <trkpt lat="43.53972" lon="6.27604">
        <ele>399.08</ele>
        <time>2015-11-27T09:08:27Z</time>
      </trkpt>
      <trkpt lat="43.53972" lon="6.27598">
        <ele>399.57</ele>
        <time>2015-11-27T09:08:30Z</time>
      </trkpt>
      <trkpt lat="43.53974" lon="6.27585">
        <ele>400.53</ele>
        <time>2015-11-27T09:08:38Z</time>
      </trkpt>
      <trkpt lat="43.53974" lon="6.27581">
        <ele>400.53</ele>
        <time>2015-11-27T09:08:41Z</time>
      </trkpt>
      <trkpt lat="43.53975" lon="6.27577">
        <ele>400.53</ele>
        <time>2015-11-27T09:08:43Z</time>
      </trkpt>
      <trkpt lat="43.53974" lon="6.27571">
        <ele>401.01</ele>
        <time>2015-11-27T09:08:46Z</time>
      </trkpt>
      <trkpt lat="43.53972" lon="6.27556">
        <ele>401.01</ele>
        <time>2015-11-27T09:08:51Z</time>
      </trkpt>
      <trkpt lat="43.53962" lon="6.27547">
        <ele>400.05</ele>
        <time>2015-11-27T09:08:57Z</time>
      </trkpt>
      <trkpt lat="43.53951" lon="6.2754">
        <ele>399.57</ele>
        <time>2015-11-27T09:09:05Z</time>
      </trkpt>
      <trkpt lat="43.53943" lon="6.27528">
        <ele>399.57</ele>
        <time>2015-11-27T09:09:13Z</time>
      </trkpt>
      <trkpt lat="43.53941" lon="6.27512">
        <ele>399.08</ele>
        <time>2015-11-27T09:09:25Z</time>
      </trkpt>
      <trkpt lat="43.5394" lon="6.2751">
        <ele>399.08</ele>
        <time>2015-11-27T09:09:31Z</time>
      </trkpt>
      <trkpt lat="43.53945" lon="6.27497">
        <ele>398.12</ele>
        <time>2015-11-27T09:09:40Z</time>
      </trkpt>
      <trkpt lat="43.53948" lon="6.27492">
        <ele>397.64</ele>
        <time>2015-11-27T09:09:44Z</time>
      </trkpt>
      <trkpt lat="43.5395" lon="6.27491">
        <ele>397.16</ele>
        <time>2015-11-27T09:09:46Z</time>
      </trkpt>
      <trkpt lat="43.53957" lon="6.27483">
        <ele>396.2</ele>
        <time>2015-11-27T09:09:53Z</time>
      </trkpt>
      <trkpt lat="43.53961" lon="6.27475">
        <ele>395.72</ele>
        <time>2015-11-27T09:09:59Z</time>
      </trkpt>
      <trkpt lat="43.53963" lon="6.27471">
        <ele>395.72</ele>
        <time>2015-11-27T09:10:01Z</time>
      </trkpt>
      <trkpt lat="43.53968" lon="6.2746">
        <ele>394.76</ele>
        <time>2015-11-27T09:10:15Z</time>
      </trkpt>
      <trkpt lat="43.53968" lon="6.27456">
        <ele>394.76</ele>
        <time>2015-11-27T09:10:43Z</time>
      </trkpt>
      <trkpt lat="43.53969" lon="6.27455">
        <ele>394.28</ele>
        <time>2015-11-27T09:10:57Z</time>
      </trkpt>
      <trkpt lat="43.53974" lon="6.2745">
        <ele>394.28</ele>
        <time>2015-11-27T09:11:10Z</time>
      </trkpt>
      <trkpt lat="43.53986" lon="6.27432">
        <ele>394.28</ele>
        <time>2015-11-27T09:11:22Z</time>
      </trkpt>
      <trkpt lat="43.53996" lon="6.27414">
        <ele>394.28</ele>
        <time>2015-11-27T09:11:36Z</time>
      </trkpt>
      <trkpt lat="43.54008" lon="6.274">
        <ele>394.76</ele>
        <time>2015-11-27T09:11:49Z</time>
      </trkpt>
      <trkpt lat="43.54014" lon="6.27386">
        <ele>395.24</ele>
        <time>2015-11-27T09:12:03Z</time>
      </trkpt>
      <trkpt lat="43.54015" lon="6.27384">
        <ele>395.24</ele>
        <time>2015-11-27T09:12:05Z</time>
      </trkpt>
      <trkpt lat="43.54017" lon="6.2738">
        <ele>395.24</ele>
        <time>2015-11-27T09:12:07Z</time>
      </trkpt>
      <trkpt lat="43.54023" lon="6.27365">
        <ele>395.24</ele>
        <time>2015-11-27T09:12:20Z</time>
      </trkpt>
      <trkpt lat="43.54027" lon="6.27358">
        <ele>395.24</ele>
        <time>2015-11-27T09:12:24Z</time>
      </trkpt>
      <trkpt lat="43.54034" lon="6.27349">
        <ele>394.76</ele>
        <time>2015-11-27T09:12:30Z</time>
      </trkpt>
      <trkpt lat="43.54039" lon="6.27345">
        <ele>395.24</ele>
        <time>2015-11-27T09:12:34Z</time>
      </trkpt>
      <trkpt lat="43.54043" lon="6.2734">
        <ele>395.72</ele>
        <time>2015-11-27T09:12:38Z</time>
      </trkpt>
      <trkpt lat="43.54052" lon="6.27322">
        <ele>394.76</ele>
        <time>2015-11-27T09:12:46Z</time>
      </trkpt>
      <trkpt lat="43.54065" lon="6.27301">
        <ele>393.32</ele>
        <time>2015-11-27T09:13:00Z</time>
      </trkpt>
      <trkpt lat="43.54076" lon="6.27282">
        <ele>391.39</ele>
        <time>2015-11-27T09:13:12Z</time>
      </trkpt>
      <trkpt lat="43.54089" lon="6.27261">
        <ele>389.47</ele>
        <time>2015-11-27T09:13:25Z</time>
      </trkpt>
      <trkpt lat="43.54096" lon="6.27254">
        <ele>388.99</ele>
        <time>2015-11-27T09:13:31Z</time>
      </trkpt>
      <trkpt lat="43.5411" lon="6.27233">
        <ele>388.03</ele>
        <time>2015-11-27T09:13:45Z</time>
      </trkpt>
      <trkpt lat="43.54125" lon="6.27212">
        <ele>387.07</ele>
        <time>2015-11-27T09:13:59Z</time>
      </trkpt>
      <trkpt lat="43.54128" lon="6.27207">
        <ele>387.07</ele>
        <time>2015-11-27T09:14:02Z</time>
      </trkpt>
      <trkpt lat="43.54134" lon="6.27201">
        <ele>387.07</ele>
        <time>2015-11-27T09:14:07Z</time>
      </trkpt>
      <trkpt lat="43.54145" lon="6.27184">
        <ele>387.07</ele>
        <time>2015-11-27T09:14:20Z</time>
      </trkpt>
      <trkpt lat="43.5415" lon="6.2717">
        <ele>386.59</ele>
        <time>2015-11-27T09:14:28Z</time>
      </trkpt>
      <trkpt lat="43.54159" lon="6.27156">
        <ele>386.59</ele>
        <time>2015-11-27T09:14:36Z</time>
      </trkpt>
      <trkpt lat="43.54158" lon="6.27108">
        <ele>387.55</ele>
        <time>2015-11-27T09:14:53Z</time>
      </trkpt>
      <trkpt lat="43.54164" lon="6.27076">
        <ele>389.95</ele>
        <time>2015-11-27T09:15:08Z</time>
      </trkpt>
      <trkpt lat="43.5417" lon="6.2706">
        <ele>391.39</ele>
        <time>2015-11-27T09:15:19Z</time>
      </trkpt>
      <trkpt lat="43.54175" lon="6.2705">
        <ele>392.36</ele>
        <time>2015-11-27T09:15:28Z</time>
      </trkpt>
      <trkpt lat="43.54182" lon="6.27039">
        <ele>392.36</ele>
        <time>2015-11-27T09:15:34Z</time>
      </trkpt>
      <trkpt lat="43.54183" lon="6.27035">
        <ele>392.36</ele>
        <time>2015-11-27T09:15:36Z</time>
      </trkpt>
      <trkpt lat="43.54187" lon="6.27023">
        <ele>392.36</ele>
        <time>2015-11-27T09:15:43Z</time>
      </trkpt>
      <trkpt lat="43.54193" lon="6.27011">
        <ele>391.87</ele>
        <time>2015-11-27T09:15:48Z</time>
      </trkpt>
      <trkpt lat="43.54197" lon="6.26994">
        <ele>391.87</ele>
        <time>2015-11-27T09:16:03Z</time>
      </trkpt>
      <trkpt lat="43.54197" lon="6.26991">
        <ele>392.36</ele>
        <time>2015-11-27T09:16:20Z</time>
      </trkpt>
      <trkpt lat="43.54197" lon="6.26989">
        <ele>391.87</ele>
        <time>2015-11-27T09:16:38Z</time>
      </trkpt>
      <trkpt lat="43.54198" lon="6.26987">
        <ele>391.39</ele>
        <time>2015-11-27T09:16:58Z</time>
      </trkpt>
      <trkpt lat="43.54199" lon="6.26984">
        <ele>391.39</ele>
        <time>2015-11-27T09:17:15Z</time>
      </trkpt>
      <trkpt lat="43.54201" lon="6.2698">
        <ele>390.91</ele>
        <time>2015-11-27T09:17:22Z</time>
      </trkpt>
      <trkpt lat="43.54209" lon="6.26969">
        <ele>388.03</ele>
        <time>2015-11-27T09:17:35Z</time>
      </trkpt>
      <trkpt lat="43.54219" lon="6.26964">
        <ele>385.15</ele>
        <time>2015-11-27T09:17:46Z</time>
      </trkpt>
      <trkpt lat="43.54227" lon="6.2695">
        <ele>381.78</ele>
        <time>2015-11-27T09:17:59Z</time>
      </trkpt>
      <trkpt lat="43.54233" lon="6.26939">
        <ele>378.9</ele>
        <time>2015-11-27T09:18:09Z</time>
      </trkpt>
      <trkpt lat="43.54237" lon="6.26932">
        <ele>376.49</ele>
        <time>2015-11-27T09:18:19Z</time>
      </trkpt>
      <trkpt lat="43.54244" lon="6.26923">
        <ele>373.13</ele>
        <time>2015-11-27T09:18:31Z</time>
      </trkpt>
      <trkpt lat="43.54245" lon="6.26921">
        <ele>372.65</ele>
        <time>2015-11-27T09:18:34Z</time>
      </trkpt>
      <trkpt lat="43.54249" lon="6.26913">
        <ele>370.73</ele>
        <time>2015-11-27T09:18:44Z</time>
      </trkpt>
      <trkpt lat="43.54258" lon="6.26904">
        <ele>368.32</ele>
        <time>2015-11-27T09:18:57Z</time>
      </trkpt>
      <trkpt lat="43.54264" lon="6.26896">
        <ele>366.88</ele>
        <time>2015-11-27T09:19:11Z</time>
      </trkpt>
      <trkpt lat="43.54265" lon="6.26893">
        <ele>366.88</ele>
        <time>2015-11-27T09:19:29Z</time>
      </trkpt>
      <trkpt lat="43.54265" lon="6.26894">
        <ele>366.4</ele>
        <time>2015-11-27T09:19:39Z</time>
      </trkpt>
      <trkpt lat="43.54268" lon="6.26893">
        <ele>366.88</ele>
        <time>2015-11-27T09:19:53Z</time>
      </trkpt>
      <trkpt lat="43.54273" lon="6.26893">
        <ele>364.96</ele>
        <time>2015-11-27T09:20:03Z</time>
      </trkpt>
      <trkpt lat="43.54275" lon="6.26893">
        <ele>364.48</ele>
        <time>2015-11-27T09:20:05Z</time>
      </trkpt>
      <trkpt lat="43.54277" lon="6.26892">
        <ele>364.96</ele>
        <time>2015-11-27T09:20:07Z</time>
      </trkpt>
      <trkpt lat="43.54291" lon="6.26889">
        <ele>364</ele>
        <time>2015-11-27T09:20:19Z</time>
      </trkpt>
      <trkpt lat="43.54292" lon="6.26887">
        <ele>363.52</ele>
        <time>2015-11-27T09:20:25Z</time>
      </trkpt>
      <trkpt lat="43.54289" lon="6.26889">
        <ele>364</ele>
        <time>2015-11-27T09:20:28Z</time>
      </trkpt>
      <trkpt lat="43.54278" lon="6.26895">
        <ele>364.48</ele>
        <time>2015-11-27T09:20:37Z</time>
      </trkpt>
      <trkpt lat="43.54272" lon="6.26896">
        <ele>364.96</ele>
        <time>2015-11-27T09:20:43Z</time>
      </trkpt>
      <trkpt lat="43.54265" lon="6.26895">
        <ele>365.92</ele>
        <time>2015-11-27T09:20:56Z</time>
      </trkpt>
      <trkpt lat="43.54261" lon="6.26888">
        <ele>366.88</ele>
        <time>2015-11-27T09:21:07Z</time>
      </trkpt>
      <trkpt lat="43.54261" lon="6.26888">
        <ele>366.4</ele>
        <time>2015-11-27T09:21:21Z</time>
      </trkpt>
      <trkpt lat="43.54261" lon="6.26887">
        <ele>366.88</ele>
        <time>2015-11-27T09:21:34Z</time>
      </trkpt>
      <trkpt lat="43.54261" lon="6.2689">
        <ele>366.4</ele>
        <time>2015-11-27T09:21:47Z</time>
      </trkpt>
      <trkpt lat="43.54261" lon="6.2689">
        <ele>366.4</ele>
        <time>2015-11-27T09:22:05Z</time>
      </trkpt>
      <trkpt lat="43.5426" lon="6.26891">
        <ele>366.88</ele>
        <time>2015-11-27T09:22:16Z</time>
      </trkpt>
      <trkpt lat="43.54261" lon="6.26885">
        <ele>366.4</ele>
        <time>2015-11-27T09:22:29Z</time>
      </trkpt>
      <trkpt lat="43.54261" lon="6.2688">
        <ele>366.4</ele>
        <time>2015-11-27T09:22:34Z</time>
      </trkpt>
      <trkpt lat="43.5426" lon="6.26858">
        <ele>366.4</ele>
        <time>2015-11-27T09:22:46Z</time>
      </trkpt>
      <trkpt lat="43.5426" lon="6.26856">
        <ele>366.4</ele>
        <time>2015-11-27T09:22:47Z</time>
      </trkpt>
      <trkpt lat="43.54258" lon="6.26846">
        <ele>366.4</ele>
        <time>2015-11-27T09:22:53Z</time>
      </trkpt>
      <trkpt lat="43.54252" lon="6.26826">
        <ele>366.88</ele>
        <time>2015-11-27T09:23:05Z</time>
      </trkpt>
      <trkpt lat="43.54249" lon="6.26811">
        <ele>367.36</ele>
        <time>2015-11-27T09:23:17Z</time>
      </trkpt>
      <trkpt lat="43.54243" lon="6.26802">
        <ele>367.84</ele>
        <time>2015-11-27T09:23:29Z</time>
      </trkpt>
      <trkpt lat="43.54243" lon="6.26795">
        <ele>367.36</ele>
        <time>2015-11-27T09:23:40Z</time>
      </trkpt>
      <trkpt lat="43.54248" lon="6.26785">
        <ele>364</ele>
        <time>2015-11-27T09:23:51Z</time>
      </trkpt>
      <trkpt lat="43.54251" lon="6.26781">
        <ele>362.07</ele>
        <time>2015-11-27T09:23:58Z</time>
      </trkpt>
      <trkpt lat="43.54252" lon="6.26763">
        <ele>359.19</ele>
        <time>2015-11-27T09:24:05Z</time>
      </trkpt>
      <trkpt lat="43.54254" lon="6.26749">
        <ele>356.31</ele>
        <time>2015-11-27T09:24:17Z</time>
      </trkpt>
      <trkpt lat="43.54254" lon="6.26744">
        <ele>355.83</ele>
        <time>2015-11-27T09:24:34Z</time>
      </trkpt>
      <trkpt lat="43.54255" lon="6.26743">
        <ele>355.83</ele>
        <time>2015-11-27T09:24:35Z</time>
      </trkpt>
      <trkpt lat="43.54261" lon="6.26746">
        <ele>352.46</ele>
        <time>2015-11-27T09:24:47Z</time>
      </trkpt>
      <trkpt lat="43.54266" lon="6.2675">
        <ele>349.1</ele>
        <time>2015-11-27T09:24:58Z</time>
      </trkpt>
      <trkpt lat="43.54276" lon="6.26765">
        <ele>346.21</ele>
        <time>2015-11-27T09:25:13Z</time>
      </trkpt>
      <trkpt lat="43.54276" lon="6.26766">
        <ele>346.21</ele>
        <time>2015-11-27T09:25:14Z</time>
      </trkpt>
      <trkpt lat="43.54284" lon="6.26784">
        <ele>343.81</ele>
        <time>2015-11-27T09:25:27Z</time>
      </trkpt>
      <trkpt lat="43.5429" lon="6.26791">
        <ele>343.33</ele>
        <time>2015-11-27T09:25:40Z</time>
      </trkpt>
      <trkpt lat="43.54291" lon="6.26791">
        <ele>343.33</ele>
        <time>2015-11-27T09:26:10Z</time>
      </trkpt>
      <trkpt lat="43.54293" lon="6.26791">
        <ele>343.33</ele>
        <time>2015-11-27T09:26:39Z</time>
      </trkpt>
      <trkpt lat="43.54292" lon="6.26792">
        <ele>343.33</ele>
        <time>2015-11-27T09:27:04Z</time>
      </trkpt>
      <trkpt lat="43.54294" lon="6.26794">
        <ele>342.37</ele>
        <time>2015-11-27T09:27:29Z</time>
      </trkpt>
      <trkpt lat="43.54295" lon="6.268">
        <ele>341.41</ele>
        <time>2015-11-27T09:27:35Z</time>
      </trkpt>
      <trkpt lat="43.54305" lon="6.26809">
        <ele>339.48</ele>
        <time>2015-11-27T09:27:49Z</time>
      </trkpt>
      <trkpt lat="43.54305" lon="6.26805">
        <ele>338.52</ele>
        <time>2015-11-27T09:27:52Z</time>
      </trkpt>
      <trkpt lat="43.54303" lon="6.2679">
        <ele>336.12</ele>
        <time>2015-11-27T09:28:05Z</time>
      </trkpt>
      <trkpt lat="43.54304" lon="6.26775">
        <ele>332.75</ele>
        <time>2015-11-27T09:28:19Z</time>
      </trkpt>
      <trkpt lat="43.54306" lon="6.26752">
        <ele>331.31</ele>
        <time>2015-11-27T09:28:34Z</time>
      </trkpt>
      <trkpt lat="43.54305" lon="6.26747">
        <ele>330.35</ele>
        <time>2015-11-27T09:28:39Z</time>
      </trkpt>
      <trkpt lat="43.54305" lon="6.26739">
        <ele>329.87</ele>
        <time>2015-11-27T09:28:44Z</time>
      </trkpt>
      <trkpt lat="43.54306" lon="6.26731">
        <ele>328.91</ele>
        <time>2015-11-27T09:28:49Z</time>
      </trkpt>
      <trkpt lat="43.54299" lon="6.2671">
        <ele>327.47</ele>
        <time>2015-11-27T09:29:02Z</time>
      </trkpt>
      <trkpt lat="43.543" lon="6.26694">
        <ele>326.02</ele>
        <time>2015-11-27T09:29:13Z</time>
      </trkpt>
      <trkpt lat="43.54293" lon="6.26673">
        <ele>323.62</ele>
        <time>2015-11-27T09:29:27Z</time>
      </trkpt>
      <trkpt lat="43.54293" lon="6.26666">
        <ele>322.66</ele>
        <time>2015-11-27T09:29:33Z</time>
      </trkpt>
      <trkpt lat="43.54294" lon="6.26651">
        <ele>318.81</ele>
        <time>2015-11-27T09:29:46Z</time>
      </trkpt>
      <trkpt lat="43.54292" lon="6.26636">
        <ele>316.41</ele>
        <time>2015-11-27T09:29:58Z</time>
      </trkpt>
      <trkpt lat="43.54293" lon="6.26623">
        <ele>313.53</ele>
        <time>2015-11-27T09:30:10Z</time>
      </trkpt>
      <trkpt lat="43.54293" lon="6.26622">
        <ele>310.16</ele>
        <time>2015-11-27T09:30:23Z</time>
      </trkpt>
      <trkpt lat="43.54298" lon="6.26627">
        <ele>307.28</ele>
        <time>2015-11-27T09:30:38Z</time>
      </trkpt>
      <trkpt lat="43.54302" lon="6.26633">
        <ele>305.84</ele>
        <time>2015-11-27T09:30:45Z</time>
      </trkpt>
      <trkpt lat="43.54312" lon="6.2664">
        <ele>302.95</ele>
        <time>2015-11-27T09:30:59Z</time>
      </trkpt>
      <trkpt lat="43.54314" lon="6.26642">
        <ele>302.47</ele>
        <time>2015-11-27T09:31:05Z</time>
      </trkpt>
      <trkpt lat="43.54317" lon="6.26644">
        <ele>302.47</ele>
        <time>2015-11-27T09:31:08Z</time>
      </trkpt>
      <trkpt lat="43.54321" lon="6.26638">
        <ele>300.55</ele>
        <time>2015-11-27T09:31:19Z</time>
      </trkpt>
      <trkpt lat="43.54323" lon="6.26622">
        <ele>297.18</ele>
        <time>2015-11-27T09:31:33Z</time>
      </trkpt>
      <trkpt lat="43.54323" lon="6.26622">
        <ele>296.22</ele>
        <time>2015-11-27T09:31:37Z</time>
      </trkpt>
      <trkpt lat="43.54323" lon="6.266">
        <ele>292.86</ele>
        <time>2015-11-27T09:31:52Z</time>
      </trkpt>
      <trkpt lat="43.54323" lon="6.26592">
        <ele>290.46</ele>
        <time>2015-11-27T09:32:04Z</time>
      </trkpt>
      <trkpt lat="43.54322" lon="6.26581">
        <ele>287.57</ele>
        <time>2015-11-27T09:32:17Z</time>
      </trkpt>
      <trkpt lat="43.54318" lon="6.26564">
        <ele>284.69</ele>
        <time>2015-11-27T09:32:34Z</time>
      </trkpt>
      <trkpt lat="43.54318" lon="6.26562">
        <ele>284.21</ele>
        <time>2015-11-27T09:32:36Z</time>
      </trkpt>
      <trkpt lat="43.54322" lon="6.26549">
        <ele>280.84</ele>
        <time>2015-11-27T09:32:49Z</time>
      </trkpt>
      <trkpt lat="43.54325" lon="6.26537">
        <ele>277.96</ele>
        <time>2015-11-27T09:33:01Z</time>
      </trkpt>
      <trkpt lat="43.5433" lon="6.26526">
        <ele>274.59</ele>
        <time>2015-11-27T09:33:11Z</time>
      </trkpt>
      <trkpt lat="43.54331" lon="6.26517">
        <ele>272.67</ele>
        <time>2015-11-27T09:33:21Z</time>
      </trkpt>
      <trkpt lat="43.54334" lon="6.26502">
        <ele>269.79</ele>
        <time>2015-11-27T09:33:34Z</time>
      </trkpt>
      <trkpt lat="43.54333" lon="6.26499">
        <ele>269.79</ele>
        <time>2015-11-27T09:33:48Z</time>
      </trkpt>
      <trkpt lat="43.54339" lon="6.26489">
        <ele>267.86</ele>
        <time>2015-11-27T09:34:01Z</time>
      </trkpt>
      <trkpt lat="43.54341" lon="6.26473">
        <ele>265.46</ele>
        <time>2015-11-27T09:34:16Z</time>
      </trkpt>
      <trkpt lat="43.54342" lon="6.26455">
        <ele>263.06</ele>
        <time>2015-11-27T09:34:30Z</time>
      </trkpt>
      <trkpt lat="43.54342" lon="6.26449">
        <ele>262.1</ele>
        <time>2015-11-27T09:34:44Z</time>
      </trkpt>
      <trkpt lat="43.54341" lon="6.26442">
        <ele>262.1</ele>
        <time>2015-11-27T09:34:57Z</time>
      </trkpt>
      <trkpt lat="43.54338" lon="6.26444">
        <ele>262.1</ele>
        <time>2015-11-27T09:35:10Z</time>
      </trkpt>
      <trkpt lat="43.54339" lon="6.26438">
        <ele>262.1</ele>
        <time>2015-11-27T09:35:25Z</time>
      </trkpt>
      <trkpt lat="43.54339" lon="6.26434">
        <ele>261.62</ele>
        <time>2015-11-27T09:35:38Z</time>
      </trkpt>
      <trkpt lat="43.54341" lon="6.26425">
        <ele>259.69</ele>
        <time>2015-11-27T09:35:51Z</time>
      </trkpt>
      <trkpt lat="43.54339" lon="6.26413">
        <ele>258.73</ele>
        <time>2015-11-27T09:36:05Z</time>
      </trkpt>
      <trkpt lat="43.54332" lon="6.26405">
        <ele>256.81</ele>
        <time>2015-11-27T09:36:18Z</time>
      </trkpt>
      <trkpt lat="43.54332" lon="6.26405">
        <ele>256.33</ele>
        <time>2015-11-27T09:36:26Z</time>
      </trkpt>
      <trkpt lat="43.54333" lon="6.26404">
        <ele>256.33</ele>
        <time>2015-11-27T09:36:28Z</time>
      </trkpt>
      <trkpt lat="43.54342" lon="6.26388">
        <ele>253.93</ele>
        <time>2015-11-27T09:36:40Z</time>
      </trkpt>
      <trkpt lat="43.54342" lon="6.26383">
        <ele>252.96</ele>
        <time>2015-11-27T09:36:44Z</time>
      </trkpt>
      <trkpt lat="43.54343" lon="6.26365">
        <ele>250.08</ele>
        <time>2015-11-27T09:36:57Z</time>
      </trkpt>
      <trkpt lat="43.54346" lon="6.26354">
        <ele>248.64</ele>
        <time>2015-11-27T09:37:11Z</time>
      </trkpt>
      <trkpt lat="43.54345" lon="6.26351">
        <ele>248.64</ele>
        <time>2015-11-27T09:37:20Z</time>
      </trkpt>
      <trkpt lat="43.54346" lon="6.26341">
        <ele>248.64</ele>
        <time>2015-11-27T09:37:34Z</time>
      </trkpt>
      <trkpt lat="43.54343" lon="6.26333">
        <ele>248.64</ele>
        <time>2015-11-27T09:37:39Z</time>
      </trkpt>
      <trkpt lat="43.54332" lon="6.26304">
        <ele>248.16</ele>
        <time>2015-11-27T09:37:54Z</time>
      </trkpt>
      <trkpt lat="43.54325" lon="6.26288">
        <ele>247.2</ele>
        <time>2015-11-27T09:38:04Z</time>
      </trkpt>
      <trkpt lat="43.54319" lon="6.26257">
        <ele>246.23</ele>
        <time>2015-11-27T09:38:19Z</time>
      </trkpt>
      <trkpt lat="43.54317" lon="6.26223">
        <ele>245.27</ele>
        <time>2015-11-27T09:38:34Z</time>
      </trkpt>
      <trkpt lat="43.54316" lon="6.26188">
        <ele>244.31</ele>
        <time>2015-11-27T09:38:50Z</time>
      </trkpt>
      <trkpt lat="43.54311" lon="6.26158">
        <ele>244.31</ele>
        <time>2015-11-27T09:39:05Z</time>
      </trkpt>
      <trkpt lat="43.543" lon="6.26133">
        <ele>243.35</ele>
        <time>2015-11-27T09:39:19Z</time>
      </trkpt>
      <trkpt lat="43.54289" lon="6.26105">
        <ele>241.43</ele>
        <time>2015-11-27T09:39:33Z</time>
      </trkpt>
      <trkpt lat="43.54278" lon="6.26085">
        <ele>238.54</ele>
        <time>2015-11-27T09:39:45Z</time>
      </trkpt>
      <trkpt lat="43.54271" lon="6.26061">
        <ele>235.66</ele>
        <time>2015-11-27T09:39:58Z</time>
      </trkpt>
      <trkpt lat="43.54266" lon="6.26042">
        <ele>233.26</ele>
        <time>2015-11-27T09:40:11Z</time>
      </trkpt>
      <trkpt lat="43.54264" lon="6.26015">
        <ele>230.37</ele>
        <time>2015-11-27T09:40:26Z</time>
      </trkpt>
      <trkpt lat="43.54266" lon="6.25988">
        <ele>227.97</ele>
        <time>2015-11-27T09:40:40Z</time>
      </trkpt>
      <trkpt lat="43.54278" lon="6.25958">
        <ele>227.01</ele>
        <time>2015-11-27T09:40:57Z</time>
      </trkpt>
      <trkpt lat="43.54292" lon="6.25931">
        <ele>227.01</ele>
        <time>2015-11-27T09:41:12Z</time>
      </trkpt>
      <trkpt lat="43.5431" lon="6.25903">
        <ele>227.49</ele>
        <time>2015-11-27T09:41:31Z</time>
      </trkpt>
      <trkpt lat="43.54314" lon="6.25894">
        <ele>227.01</ele>
        <time>2015-11-27T09:41:36Z</time>
      </trkpt>
      <trkpt lat="43.54319" lon="6.25877">
        <ele>226.53</ele>
        <time>2015-11-27T09:41:45Z</time>
      </trkpt>
      <trkpt lat="43.54322" lon="6.25858">
        <ele>226.53</ele>
        <time>2015-11-27T09:41:59Z</time>
      </trkpt>
      <trkpt lat="43.54322" lon="6.25858">
        <ele>226.53</ele>
        <time>2015-11-27T09:42:00Z</time>
      </trkpt>
      <trkpt lat="43.54323" lon="6.25853">
        <ele>226.53</ele>
        <time>2015-11-27T09:42:03Z</time>
      </trkpt>
      <trkpt lat="43.54325" lon="6.25843">
        <ele>226.53</ele>
        <time>2015-11-27T09:42:08Z</time>
      </trkpt>
      <trkpt lat="43.54334" lon="6.25808">
        <ele>226.05</ele>
        <time>2015-11-27T09:42:25Z</time>
      </trkpt>
      <trkpt lat="43.54341" lon="6.25779">
        <ele>226.53</ele>
        <time>2015-11-27T09:42:40Z</time>
      </trkpt>
      <trkpt lat="43.54344" lon="6.25771">
        <ele>226.53</ele>
        <time>2015-11-27T09:42:45Z</time>
      </trkpt>
      <trkpt lat="43.54345" lon="6.25764">
        <ele>226.53</ele>
        <time>2015-11-27T09:42:49Z</time>
      </trkpt>
      <trkpt lat="43.54349" lon="6.25753">
        <ele>226.05</ele>
        <time>2015-11-27T09:42:56Z</time>
      </trkpt>
      <trkpt lat="43.54364" lon="6.25743">
        <ele>223.16</ele>
        <time>2015-11-27T09:43:11Z</time>
      </trkpt>
      <trkpt lat="43.54379" lon="6.25721">
        <ele>219.8</ele>
        <time>2015-11-27T09:43:28Z</time>
      </trkpt>
      <trkpt lat="43.54386" lon="6.25706">
        <ele>218.36</ele>
        <time>2015-11-27T09:43:36Z</time>
      </trkpt>
      <trkpt lat="43.54392" lon="6.25699">
        <ele>218.36</ele>
        <time>2015-11-27T09:43:40Z</time>
      </trkpt>
      <trkpt lat="43.5441" lon="6.25669">
        <ele>216.43</ele>
        <time>2015-11-27T09:43:57Z</time>
      </trkpt>
      <trkpt lat="43.54422" lon="6.2564">
        <ele>214.99</ele>
        <time>2015-11-27T09:44:13Z</time>
      </trkpt>
      <trkpt lat="43.54433" lon="6.2562">
        <ele>213.07</ele>
        <time>2015-11-27T09:44:26Z</time>
      </trkpt>
      <trkpt lat="43.54452" lon="6.25594">
        <ele>211.63</ele>
        <time>2015-11-27T09:44:43Z</time>
      </trkpt>
      <trkpt lat="43.54453" lon="6.25593">
        <ele>211.63</ele>
        <time>2015-11-27T09:44:44Z</time>
      </trkpt>
      <trkpt lat="43.54468" lon="6.25567">
        <ele>210.67</ele>
        <time>2015-11-27T09:45:01Z</time>
      </trkpt>
      <trkpt lat="43.54475" lon="6.25549">
        <ele>209.7</ele>
        <time>2015-11-27T09:45:11Z</time>
      </trkpt>
      <trkpt lat="43.54485" lon="6.25522">
        <ele>208.26</ele>
        <time>2015-11-27T09:45:26Z</time>
      </trkpt>
      <trkpt lat="43.54496" lon="6.25494">
        <ele>208.26</ele>
        <time>2015-11-27T09:45:41Z</time>
      </trkpt>
      <trkpt lat="43.54506" lon="6.2547">
        <ele>208.26</ele>
        <time>2015-11-27T09:45:55Z</time>
      </trkpt>
      <trkpt lat="43.54517" lon="6.25441">
        <ele>207.78</ele>
        <time>2015-11-27T09:46:10Z</time>
      </trkpt>
      <trkpt lat="43.54526" lon="6.25414">
        <ele>207.3</ele>
        <time>2015-11-27T09:46:25Z</time>
      </trkpt>
      <trkpt lat="43.54531" lon="6.25393">
        <ele>206.82</ele>
        <time>2015-11-27T09:46:36Z</time>
      </trkpt>
      <trkpt lat="43.54535" lon="6.25363">
        <ele>205.38</ele>
        <time>2015-11-27T09:46:51Z</time>
      </trkpt>
      <trkpt lat="43.54535" lon="6.25361">
        <ele>205.38</ele>
        <time>2015-11-27T09:46:52Z</time>
      </trkpt>
      <trkpt lat="43.54531" lon="6.25358">
        <ele>204.9</ele>
        <time>2015-11-27T09:46:56Z</time>
      </trkpt>
      <trkpt lat="43.54527" lon="6.25364">
        <ele>204.9</ele>
        <time>2015-11-27T09:47:08Z</time>
      </trkpt>
      <trkpt lat="43.54526" lon="6.2537">
        <ele>204.9</ele>
        <time>2015-11-27T09:47:18Z</time>
      </trkpt>
      <trkpt lat="43.54524" lon="6.25375">
        <ele>205.38</ele>
        <time>2015-11-27T09:47:22Z</time>
      </trkpt>
      <trkpt lat="43.54518" lon="6.25401">
        <ele>205.86</ele>
        <time>2015-11-27T09:47:37Z</time>
      </trkpt>
      <trkpt lat="43.54515" lon="6.25412">
        <ele>205.86</ele>
        <time>2015-11-27T09:47:49Z</time>
      </trkpt>
      <trkpt lat="43.54506" lon="6.25433">
        <ele>206.34</ele>
        <time>2015-11-27T09:48:04Z</time>
      </trkpt>
      <trkpt lat="43.54505" lon="6.25437">
        <ele>205.86</ele>
        <time>2015-11-27T09:48:06Z</time>
      </trkpt>
      <trkpt lat="43.545" lon="6.25451">
        <ele>206.34</ele>
        <time>2015-11-27T09:48:14Z</time>
      </trkpt>
      <trkpt lat="43.54499" lon="6.25454">
        <ele>206.34</ele>
        <time>2015-11-27T09:48:16Z</time>
      </trkpt>
      <trkpt lat="43.54488" lon="6.25474">
        <ele>206.82</ele>
        <time>2015-11-27T09:48:31Z</time>
      </trkpt>
      <trkpt lat="43.54487" lon="6.25475">
        <ele>206.82</ele>
        <time>2015-11-27T09:48:32Z</time>
      </trkpt>
      <trkpt lat="43.54479" lon="6.25491">
        <ele>207.3</ele>
        <time>2015-11-27T09:48:41Z</time>
      </trkpt>
      <trkpt lat="43.54474" lon="6.25505">
        <ele>207.3</ele>
        <time>2015-11-27T09:48:48Z</time>
      </trkpt>
      <trkpt lat="43.54465" lon="6.25529">
        <ele>207.78</ele>
        <time>2015-11-27T09:49:01Z</time>
      </trkpt>
      <trkpt lat="43.54455" lon="6.25552">
        <ele>208.26</ele>
        <time>2015-11-27T09:49:15Z</time>
      </trkpt>
      <trkpt lat="43.54443" lon="6.25571">
        <ele>208.26</ele>
        <time>2015-11-27T09:49:28Z</time>
      </trkpt>
      <trkpt lat="43.54437" lon="6.25581">
        <ele>208.74</ele>
        <time>2015-11-27T09:49:34Z</time>
      </trkpt>
      <trkpt lat="43.5442" lon="6.25604">
        <ele>209.22</ele>
        <time>2015-11-27T09:49:50Z</time>
      </trkpt>
      <trkpt lat="43.54415" lon="6.25609">
        <ele>209.22</ele>
        <time>2015-11-27T09:49:55Z</time>
      </trkpt>
      <trkpt lat="43.54406" lon="6.25619">
        <ele>209.22</ele>
        <time>2015-11-27T09:50:04Z</time>
      </trkpt>
      <trkpt lat="43.5439" lon="6.25636">
        <ele>210.19</ele>
        <time>2015-11-27T09:50:18Z</time>
      </trkpt>
      <trkpt lat="43.5438" lon="6.25644">
        <ele>210.19</ele>
        <time>2015-11-27T09:50:27Z</time>
      </trkpt>
      <trkpt lat="43.5436" lon="6.25658">
        <ele>210.19</ele>
        <time>2015-11-27T09:50:43Z</time>
      </trkpt>
      <trkpt lat="43.54345" lon="6.25667">
        <ele>210.67</ele>
        <time>2015-11-27T09:50:55Z</time>
      </trkpt>
      <trkpt lat="43.54328" lon="6.25677">
        <ele>211.15</ele>
        <time>2015-11-27T09:51:08Z</time>
      </trkpt>
      <trkpt lat="43.54307" lon="6.25687">
        <ele>210.67</ele>
        <time>2015-11-27T09:51:24Z</time>
      </trkpt>
      <trkpt lat="43.54305" lon="6.25689">
        <ele>211.15</ele>
        <time>2015-11-27T09:51:26Z</time>
      </trkpt>
      <trkpt lat="43.54283" lon="6.25695">
        <ele>211.15</ele>
        <time>2015-11-27T09:51:42Z</time>
      </trkpt>
      <trkpt lat="43.54268" lon="6.25698">
        <ele>211.15</ele>
        <time>2015-11-27T09:51:53Z</time>
      </trkpt>
      <trkpt lat="43.5426" lon="6.25701">
        <ele>211.15</ele>
        <time>2015-11-27T09:52:00Z</time>
      </trkpt>
      <trkpt lat="43.54241" lon="6.25701">
        <ele>211.63</ele>
        <time>2015-11-27T09:52:14Z</time>
      </trkpt>
      <trkpt lat="43.54221" lon="6.25703">
        <ele>211.63</ele>
        <time>2015-11-27T09:52:29Z</time>
      </trkpt>
      <trkpt lat="43.54211" lon="6.25704">
        <ele>211.63</ele>
        <time>2015-11-27T09:52:37Z</time>
      </trkpt>
      <trkpt lat="43.54209" lon="6.25705">
        <ele>212.11</ele>
        <time>2015-11-27T09:52:39Z</time>
      </trkpt>
      <trkpt lat="43.54198" lon="6.25708">
        <ele>212.59</ele>
        <time>2015-11-27T09:52:54Z</time>
      </trkpt>
      <trkpt lat="43.54198" lon="6.25714">
        <ele>212.11</ele>
        <time>2015-11-27T09:53:11Z</time>
      </trkpt>
      <trkpt lat="43.54192" lon="6.25709">
        <ele>212.59</ele>
        <time>2015-11-27T09:53:26Z</time>
      </trkpt>
      <trkpt lat="43.54178" lon="6.25708">
        <ele>212.59</ele>
        <time>2015-11-27T09:53:39Z</time>
      </trkpt>
      <trkpt lat="43.54173" lon="6.25711">
        <ele>212.59</ele>
        <time>2015-11-27T09:53:43Z</time>
      </trkpt>
      <trkpt lat="43.54167" lon="6.25709">
        <ele>212.59</ele>
        <time>2015-11-27T09:53:48Z</time>
      </trkpt>
      <trkpt lat="43.54149" lon="6.25711">
        <ele>212.59</ele>
        <time>2015-11-27T09:54:01Z</time>
      </trkpt>
      <trkpt lat="43.54136" lon="6.25713">
        <ele>213.07</ele>
        <time>2015-11-27T09:54:13Z</time>
      </trkpt>
      <trkpt lat="43.54133" lon="6.25713">
        <ele>213.07</ele>
        <time>2015-11-27T09:54:16Z</time>
      </trkpt>
      <trkpt lat="43.54121" lon="6.25714">
        <ele>213.07</ele>
        <time>2015-11-27T09:54:25Z</time>
      </trkpt>
      <trkpt lat="43.54103" lon="6.25719">
        <ele>213.55</ele>
        <time>2015-11-27T09:54:41Z</time>
      </trkpt>
      <trkpt lat="43.54083" lon="6.25722">
        <ele>213.55</ele>
        <time>2015-11-27T09:54:58Z</time>
      </trkpt>
      <trkpt lat="43.54068" lon="6.25723">
        <ele>214.03</ele>
        <time>2015-11-27T09:55:10Z</time>
      </trkpt>
      <trkpt lat="43.54054" lon="6.25729">
        <ele>214.51</ele>
        <time>2015-11-27T09:55:22Z</time>
      </trkpt>
      <trkpt lat="43.54051" lon="6.2573">
        <ele>214.51</ele>
        <time>2015-11-27T09:55:25Z</time>
      </trkpt>
      <trkpt lat="43.54036" lon="6.25732">
        <ele>214.51</ele>
        <time>2015-11-27T09:55:38Z</time>
      </trkpt>
      <trkpt lat="43.54017" lon="6.25728">
        <ele>214.99</ele>
        <time>2015-11-27T09:55:50Z</time>
      </trkpt>
      <trkpt lat="43.54014" lon="6.25726">
        <ele>214.99</ele>
        <time>2015-11-27T09:55:58Z</time>
      </trkpt>
      <trkpt lat="43.54007" lon="6.25725">
        <ele>215.47</ele>
        <time>2015-11-27T09:56:04Z</time>
      </trkpt>
      <trkpt lat="43.53992" lon="6.25722">
        <ele>215.47</ele>
        <time>2015-11-27T09:56:16Z</time>
      </trkpt>
      <trkpt lat="43.53979" lon="6.25715">
        <ele>215.95</ele>
        <time>2015-11-27T09:56:30Z</time>
      </trkpt>
      <trkpt lat="43.53974" lon="6.25711">
        <ele>215.95</ele>
        <time>2015-11-27T09:56:38Z</time>
      </trkpt>
      <trkpt lat="43.53964" lon="6.25703">
        <ele>215.95</ele>
        <time>2015-11-27T09:56:46Z</time>
      </trkpt>
      <trkpt lat="43.5396" lon="6.257">
        <ele>215.95</ele>
        <time>2015-11-27T09:56:50Z</time>
      </trkpt>
      <trkpt lat="43.53948" lon="6.25695">
        <ele>216.43</ele>
        <time>2015-11-27T09:57:03Z</time>
      </trkpt>
      <trkpt lat="43.53947" lon="6.25695">
        <ele>216.43</ele>
        <time>2015-11-27T09:57:04Z</time>
      </trkpt>
      <trkpt lat="43.53943" lon="6.2569">
        <ele>216.43</ele>
        <time>2015-11-27T09:57:08Z</time>
      </trkpt>
      <trkpt lat="43.53931" lon="6.25679">
        <ele>216.43</ele>
        <time>2015-11-27T09:57:19Z</time>
      </trkpt>
      <trkpt lat="43.53917" lon="6.25664">
        <ele>216.43</ele>
        <time>2015-11-27T09:57:34Z</time>
      </trkpt>
      <trkpt lat="43.539" lon="6.25648">
        <ele>216.91</ele>
        <time>2015-11-27T09:57:48Z</time>
      </trkpt>
      <trkpt lat="43.53892" lon="6.25641">
        <ele>218.36</ele>
        <time>2015-11-27T09:57:56Z</time>
      </trkpt>
      <trkpt lat="43.53874" lon="6.2563">
        <ele>217.4</ele>
        <time>2015-11-27T09:58:11Z</time>
      </trkpt>
      <trkpt lat="43.53869" lon="6.25627">
        <ele>216.91</ele>
        <time>2015-11-27T09:58:15Z</time>
      </trkpt>
      <trkpt lat="43.53852" lon="6.25615">
        <ele>217.4</ele>
        <time>2015-11-27T09:58:28Z</time>
      </trkpt>
      <trkpt lat="43.5383" lon="6.25599">
        <ele>217.88</ele>
        <time>2015-11-27T09:58:46Z</time>
      </trkpt>
      <trkpt lat="43.53813" lon="6.25585">
        <ele>217.88</ele>
        <time>2015-11-27T09:59:01Z</time>
      </trkpt>
      <trkpt lat="43.538" lon="6.2557">
        <ele>217.88</ele>
        <time>2015-11-27T09:59:13Z</time>
      </trkpt>
      <trkpt lat="43.53788" lon="6.25554">
        <ele>218.36</ele>
        <time>2015-11-27T09:59:26Z</time>
      </trkpt>
      <trkpt lat="43.53771" lon="6.25526">
        <ele>218.36</ele>
        <time>2015-11-27T09:59:44Z</time>
      </trkpt>
      <trkpt lat="43.53758" lon="6.25502">
        <ele>218.84</ele>
        <time>2015-11-27T10:00:00Z</time>
      </trkpt>
      <trkpt lat="43.53747" lon="6.2548">
        <ele>219.32</ele>
        <time>2015-11-27T10:00:15Z</time>
      </trkpt>
      <trkpt lat="43.53735" lon="6.25456">
        <ele>219.8</ele>
        <time>2015-11-27T10:00:31Z</time>
      </trkpt>
      <trkpt lat="43.53734" lon="6.25455">
        <ele>219.8</ele>
        <time>2015-11-27T10:00:32Z</time>
      </trkpt>
      <trkpt lat="43.53727" lon="6.25438">
        <ele>219.8</ele>
        <time>2015-11-27T10:00:44Z</time>
      </trkpt>
      <trkpt lat="43.53713" lon="6.25414">
        <ele>220.28</ele>
        <time>2015-11-27T10:01:00Z</time>
      </trkpt>
      <trkpt lat="43.53702" lon="6.25391">
        <ele>221.24</ele>
        <time>2015-11-27T10:01:15Z</time>
      </trkpt>
      <trkpt lat="43.53688" lon="6.25366">
        <ele>220.76</ele>
        <time>2015-11-27T10:01:32Z</time>
      </trkpt>
      <trkpt lat="43.53676" lon="6.25348">
        <ele>220.76</ele>
        <time>2015-11-27T10:01:46Z</time>
      </trkpt>
      <trkpt lat="43.5367" lon="6.25342">
        <ele>221.24</ele>
        <time>2015-11-27T10:01:51Z</time>
      </trkpt>
      <trkpt lat="43.53659" lon="6.25331">
        <ele>221.24</ele>
        <time>2015-11-27T10:02:07Z</time>
      </trkpt>
      <trkpt lat="43.53657" lon="6.2533">
        <ele>221.24</ele>
        <time>2015-11-27T10:02:09Z</time>
      </trkpt>
      <trkpt lat="43.53644" lon="6.25319">
        <ele>221.72</ele>
        <time>2015-11-27T10:02:22Z</time>
      </trkpt>
      <trkpt lat="43.53642" lon="6.25318">
        <ele>221.72</ele>
        <time>2015-11-27T10:02:24Z</time>
      </trkpt>
      <trkpt lat="43.53623" lon="6.25311">
        <ele>221.72</ele>
        <time>2015-11-27T10:02:38Z</time>
      </trkpt>
      <trkpt lat="43.536" lon="6.25297">
        <ele>221.72</ele>
        <time>2015-11-27T10:02:50Z</time>
      </trkpt>
      <trkpt lat="43.53593" lon="6.25295">
        <ele>222.2</ele>
        <time>2015-11-27T10:02:55Z</time>
      </trkpt>
      <trkpt lat="43.53572" lon="6.25293">
        <ele>222.2</ele>
        <time>2015-11-27T10:03:09Z</time>
      </trkpt>
      <trkpt lat="43.5356" lon="6.25292">
        <ele>222.2</ele>
        <time>2015-11-27T10:03:17Z</time>
      </trkpt>
      <trkpt lat="43.53555" lon="6.25294">
        <ele>222.2</ele>
        <time>2015-11-27T10:03:21Z</time>
      </trkpt>
      <trkpt lat="43.5355" lon="6.25297">
        <ele>222.2</ele>
        <time>2015-11-27T10:03:25Z</time>
      </trkpt>
      <trkpt lat="43.53544" lon="6.25303">
        <ele>222.2</ele>
        <time>2015-11-27T10:03:30Z</time>
      </trkpt>
      <trkpt lat="43.53535" lon="6.25311">
        <ele>224.61</ele>
        <time>2015-11-27T10:03:37Z</time>
      </trkpt>
      <trkpt lat="43.5352" lon="6.25319">
        <ele>222.68</ele>
        <time>2015-11-27T10:03:49Z</time>
      </trkpt>
      <trkpt lat="43.53519" lon="6.2532">
        <ele>222.2</ele>
        <time>2015-11-27T10:03:50Z</time>
      </trkpt>
      <trkpt lat="43.53501" lon="6.25327">
        <ele>222.68</ele>
        <time>2015-11-27T10:04:04Z</time>
      </trkpt>
      <trkpt lat="43.53497" lon="6.25329">
        <ele>222.68</ele>
        <time>2015-11-27T10:04:07Z</time>
      </trkpt>
      <trkpt lat="43.53486" lon="6.2533">
        <ele>222.68</ele>
        <time>2015-11-27T10:04:15Z</time>
      </trkpt>
      <trkpt lat="43.53481" lon="6.25333">
        <ele>222.68</ele>
        <time>2015-11-27T10:04:19Z</time>
      </trkpt>
      <trkpt lat="43.53469" lon="6.25336">
        <ele>223.16</ele>
        <time>2015-11-27T10:04:28Z</time>
      </trkpt>
      <trkpt lat="43.5345" lon="6.25349">
        <ele>223.16</ele>
        <time>2015-11-27T10:04:43Z</time>
      </trkpt>
      <trkpt lat="43.53436" lon="6.25352">
        <ele>223.16</ele>
        <time>2015-11-27T10:04:53Z</time>
      </trkpt>
      <trkpt lat="43.53422" lon="6.25355">
        <ele>223.16</ele>
        <time>2015-11-27T10:05:02Z</time>
      </trkpt>
      <trkpt lat="43.53399" lon="6.25353">
        <ele>223.64</ele>
        <time>2015-11-27T10:05:19Z</time>
      </trkpt>
      <trkpt lat="43.5338" lon="6.25353">
        <ele>223.64</ele>
        <time>2015-11-27T10:05:33Z</time>
      </trkpt>
      <trkpt lat="43.5336" lon="6.25352">
        <ele>224.12</ele>
        <time>2015-11-27T10:05:48Z</time>
      </trkpt>
      <trkpt lat="43.53336" lon="6.25353">
        <ele>224.61</ele>
        <time>2015-11-27T10:06:05Z</time>
      </trkpt>
      <trkpt lat="43.5333" lon="6.25354">
        <ele>224.61</ele>
        <time>2015-11-27T10:06:09Z</time>
      </trkpt>
      <trkpt lat="43.53324" lon="6.25357">
        <ele>224.61</ele>
        <time>2015-11-27T10:06:13Z</time>
      </trkpt>
      <trkpt lat="43.53305" lon="6.25363">
        <ele>223.64</ele>
        <time>2015-11-27T10:06:27Z</time>
      </trkpt>
      <trkpt lat="43.53287" lon="6.25376">
        <ele>225.09</ele>
        <time>2015-11-27T10:06:42Z</time>
      </trkpt>
      <trkpt lat="43.53283" lon="6.2538">
        <ele>225.09</ele>
        <time>2015-11-27T10:06:46Z</time>
      </trkpt>
      <trkpt lat="43.53276" lon="6.25387">
        <ele>225.09</ele>
        <time>2015-11-27T10:06:52Z</time>
      </trkpt>
      <trkpt lat="43.53266" lon="6.25396">
        <ele>225.09</ele>
        <time>2015-11-27T10:07:01Z</time>
      </trkpt>
      <trkpt lat="43.53255" lon="6.25408">
        <ele>225.57</ele>
        <time>2015-11-27T10:07:10Z</time>
      </trkpt>
      <trkpt lat="43.53248" lon="6.25422">
        <ele>225.57</ele>
        <time>2015-11-27T10:07:19Z</time>
      </trkpt>
      <trkpt lat="43.53242" lon="6.25432">
        <ele>225.57</ele>
        <time>2015-11-27T10:07:26Z</time>
      </trkpt>
      <trkpt lat="43.53229" lon="6.25466">
        <ele>225.57</ele>
        <time>2015-11-27T10:07:44Z</time>
      </trkpt>
      <trkpt lat="43.53221" lon="6.25491">
        <ele>225.57</ele>
        <time>2015-11-27T10:07:58Z</time>
      </trkpt>
      <trkpt lat="43.53218" lon="6.25497">
        <ele>225.57</ele>
        <time>2015-11-27T10:08:02Z</time>
      </trkpt>
      <trkpt lat="43.53214" lon="6.25506">
        <ele>225.57</ele>
        <time>2015-11-27T10:08:08Z</time>
      </trkpt>
      <trkpt lat="43.53206" lon="6.25533">
        <ele>226.05</ele>
        <time>2015-11-27T10:08:22Z</time>
      </trkpt>
      <trkpt lat="43.53202" lon="6.25544">
        <ele>226.05</ele>
        <time>2015-11-27T10:08:29Z</time>
      </trkpt>
      <trkpt lat="43.53191" lon="6.25576">
        <ele>226.05</ele>
        <time>2015-11-27T10:08:46Z</time>
      </trkpt>
      <trkpt lat="43.53182" lon="6.25601">
        <ele>226.05</ele>
        <time>2015-11-27T10:09:00Z</time>
      </trkpt>
      <trkpt lat="43.53181" lon="6.25603">
        <ele>226.05</ele>
        <time>2015-11-27T10:09:01Z</time>
      </trkpt>
      <trkpt lat="43.53179" lon="6.25614">
        <ele>226.05</ele>
        <time>2015-11-27T10:09:07Z</time>
      </trkpt>
      <trkpt lat="43.53175" lon="6.25625">
        <ele>226.05</ele>
        <time>2015-11-27T10:09:13Z</time>
      </trkpt>
      <trkpt lat="43.5317" lon="6.25637">
        <ele>226.53</ele>
        <time>2015-11-27T10:09:20Z</time>
      </trkpt>
      <trkpt lat="43.5316" lon="6.25668">
        <ele>226.53</ele>
        <time>2015-11-27T10:09:37Z</time>
      </trkpt>
      <trkpt lat="43.53153" lon="6.25695">
        <ele>227.01</ele>
        <time>2015-11-27T10:09:51Z</time>
      </trkpt>
      <trkpt lat="43.5315" lon="6.25732">
        <ele>227.01</ele>
        <time>2015-11-27T10:10:08Z</time>
      </trkpt>
      <trkpt lat="43.5315" lon="6.25763">
        <ele>227.01</ele>
        <time>2015-11-27T10:10:24Z</time>
      </trkpt>
      <trkpt lat="43.53155" lon="6.25798">
        <ele>227.49</ele>
        <time>2015-11-27T10:10:42Z</time>
      </trkpt>
      <trkpt lat="43.53155" lon="6.25808">
        <ele>227.49</ele>
        <time>2015-11-27T10:10:48Z</time>
      </trkpt>
      <trkpt lat="43.53158" lon="6.25829">
        <ele>227.49</ele>
        <time>2015-11-27T10:10:58Z</time>
      </trkpt>
      <trkpt lat="43.53162" lon="6.25856">
        <ele>227.49</ele>
        <time>2015-11-27T10:11:14Z</time>
      </trkpt>
      <trkpt lat="43.53161" lon="6.25866">
        <ele>227.97</ele>
        <time>2015-11-27T10:11:21Z</time>
      </trkpt>
      <trkpt lat="43.53164" lon="6.25876">
        <ele>227.97</ele>
        <time>2015-11-27T10:11:27Z</time>
      </trkpt>
      <trkpt lat="43.53174" lon="6.25914">
        <ele>226.53</ele>
        <time>2015-11-27T10:11:41Z</time>
      </trkpt>
      <trkpt lat="43.53174" lon="6.25916">
        <ele>229.89</ele>
        <time>2015-11-27T10:11:42Z</time>
      </trkpt>
      <trkpt lat="43.53174" lon="6.25917">
        <ele>226.53</ele>
        <time>2015-11-27T10:11:43Z</time>
      </trkpt>
      <trkpt lat="43.53179" lon="6.25949">
        <ele>227.97</ele>
        <time>2015-11-27T10:12:00Z</time>
      </trkpt>
      <trkpt lat="43.53179" lon="6.25951">
        <ele>227.97</ele>
        <time>2015-11-27T10:12:01Z</time>
      </trkpt>
      <trkpt lat="43.5318" lon="6.25961">
        <ele>228.45</ele>
        <time>2015-11-27T10:12:06Z</time>
      </trkpt>
      <trkpt lat="43.5318" lon="6.25991">
        <ele>228.45</ele>
        <time>2015-11-27T10:12:22Z</time>
      </trkpt>
      <trkpt lat="43.53179" lon="6.26021">
        <ele>228.45</ele>
        <time>2015-11-27T10:12:39Z</time>
      </trkpt>
      <trkpt lat="43.53178" lon="6.26043">
        <ele>228.45</ele>
        <time>2015-11-27T10:12:51Z</time>
      </trkpt>
      <trkpt lat="43.53179" lon="6.26049">
        <ele>228.45</ele>
        <time>2015-11-27T10:12:54Z</time>
      </trkpt>
      <trkpt lat="43.53181" lon="6.26087">
        <ele>228.93</ele>
        <time>2015-11-27T10:13:11Z</time>
      </trkpt>
      <trkpt lat="43.53181" lon="6.26107">
        <ele>229.41</ele>
        <time>2015-11-27T10:13:21Z</time>
      </trkpt>
      <trkpt lat="43.53182" lon="6.2612">
        <ele>229.41</ele>
        <time>2015-11-27T10:13:30Z</time>
      </trkpt>
      <trkpt lat="43.53184" lon="6.26147">
        <ele>229.41</ele>
        <time>2015-11-27T10:13:44Z</time>
      </trkpt>
      <trkpt lat="43.53182" lon="6.26174">
        <ele>229.41</ele>
        <time>2015-11-27T10:13:58Z</time>
      </trkpt>
      <trkpt lat="43.53182" lon="6.26201">
        <ele>229.89</ele>
        <time>2015-11-27T10:14:10Z</time>
      </trkpt>
      <trkpt lat="43.53182" lon="6.26235">
        <ele>229.89</ele>
        <time>2015-11-27T10:14:26Z</time>
      </trkpt>
      <trkpt lat="43.53184" lon="6.26267">
        <ele>230.37</ele>
        <time>2015-11-27T10:14:41Z</time>
      </trkpt>
      <trkpt lat="43.53186" lon="6.26298">
        <ele>230.37</ele>
        <time>2015-11-27T10:14:56Z</time>
      </trkpt>
      <trkpt lat="43.53187" lon="6.26325">
        <ele>230.37</ele>
        <time>2015-11-27T10:15:10Z</time>
      </trkpt>
      <trkpt lat="43.53187" lon="6.26339">
        <ele>230.85</ele>
        <time>2015-11-27T10:15:16Z</time>
      </trkpt>
      <trkpt lat="43.53186" lon="6.26351">
        <ele>229.89</ele>
        <time>2015-11-27T10:15:21Z</time>
      </trkpt>
      <trkpt lat="43.53187" lon="6.26357">
        <ele>229.89</ele>
        <time>2015-11-27T10:15:23Z</time>
      </trkpt>
      <trkpt lat="43.53186" lon="6.26366">
        <ele>229.89</ele>
        <time>2015-11-27T10:15:27Z</time>
      </trkpt>
      <trkpt lat="43.53179" lon="6.26399">
        <ele>229.89</ele>
        <time>2015-11-27T10:15:44Z</time>
      </trkpt>
      <trkpt lat="43.53171" lon="6.26427">
        <ele>230.37</ele>
        <time>2015-11-27T10:15:58Z</time>
      </trkpt>
      <trkpt lat="43.53166" lon="6.26442">
        <ele>229.89</ele>
        <time>2015-11-27T10:16:06Z</time>
      </trkpt>
      <trkpt lat="43.53157" lon="6.26457">
        <ele>230.37</ele>
        <time>2015-11-27T10:16:15Z</time>
      </trkpt>
      <trkpt lat="43.53138" lon="6.26476">
        <ele>230.85</ele>
        <time>2015-11-27T10:16:29Z</time>
      </trkpt>
      <trkpt lat="43.53125" lon="6.2649">
        <ele>231.81</ele>
        <time>2015-11-27T10:16:41Z</time>
      </trkpt>
      <trkpt lat="43.5312" lon="6.26493">
        <ele>231.33</ele>
        <time>2015-11-27T10:16:58Z</time>
      </trkpt>
      <trkpt lat="43.5312" lon="6.26496">
        <ele>231.33</ele>
        <time>2015-11-27T10:17:19Z</time>
      </trkpt>
      <trkpt lat="43.5312" lon="6.26497">
        <ele>230.85</ele>
        <time>2015-11-27T10:17:29Z</time>
      </trkpt>
      <trkpt lat="43.53106" lon="6.26508">
        <ele>231.33</ele>
        <time>2015-11-27T10:17:43Z</time>
      </trkpt>
      <trkpt lat="43.53097" lon="6.2651">
        <ele>231.81</ele>
        <time>2015-11-27T10:17:52Z</time>
      </trkpt>
      <trkpt lat="43.53081" lon="6.26513">
        <ele>232.3</ele>
        <time>2015-11-27T10:18:04Z</time>
      </trkpt>
      <trkpt lat="43.53063" lon="6.26517">
        <ele>232.78</ele>
        <time>2015-11-27T10:18:17Z</time>
      </trkpt>
      <trkpt lat="43.53059" lon="6.26517">
        <ele>232.78</ele>
        <time>2015-11-27T10:18:20Z</time>
      </trkpt>
      <trkpt lat="43.53052" lon="6.26518">
        <ele>232.78</ele>
        <time>2015-11-27T10:18:25Z</time>
      </trkpt>
      <trkpt lat="43.53035" lon="6.26516">
        <ele>233.74</ele>
        <time>2015-11-27T10:18:38Z</time>
      </trkpt>
      <trkpt lat="43.5301" lon="6.26519">
        <ele>233.74</ele>
        <time>2015-11-27T10:18:53Z</time>
      </trkpt>
      <trkpt lat="43.53" lon="6.26517">
        <ele>234.22</ele>
        <time>2015-11-27T10:19:00Z</time>
      </trkpt>
      <trkpt lat="43.52978" lon="6.26515">
        <ele>235.18</ele>
        <time>2015-11-27T10:19:14Z</time>
      </trkpt>
      <trkpt lat="43.5297" lon="6.26516">
        <ele>235.66</ele>
        <time>2015-11-27T10:19:20Z</time>
      </trkpt>
      <trkpt lat="43.52967" lon="6.26516">
        <ele>235.66</ele>
        <time>2015-11-27T10:19:22Z</time>
      </trkpt>
      <trkpt lat="43.52962" lon="6.26516">
        <ele>235.66</ele>
        <time>2015-11-27T10:19:26Z</time>
      </trkpt>
      <trkpt lat="43.52957" lon="6.26517">
        <ele>236.14</ele>
        <time>2015-11-27T10:19:29Z</time>
      </trkpt>
      <trkpt lat="43.52937" lon="6.26525">
        <ele>236.62</ele>
        <time>2015-11-27T10:19:42Z</time>
      </trkpt>
      <trkpt lat="43.52916" lon="6.26535">
        <ele>237.1</ele>
        <time>2015-11-27T10:19:57Z</time>
      </trkpt>
      <trkpt lat="43.52911" lon="6.2654">
        <ele>237.58</ele>
        <time>2015-11-27T10:20:01Z</time>
      </trkpt>
      <trkpt lat="43.52906" lon="6.26546">
        <ele>238.06</ele>
        <time>2015-11-27T10:20:06Z</time>
      </trkpt>
      <trkpt lat="43.52894" lon="6.26562">
        <ele>238.06</ele>
        <time>2015-11-27T10:20:17Z</time>
      </trkpt>
      <trkpt lat="43.52882" lon="6.26576">
        <ele>238.54</ele>
        <time>2015-11-27T10:20:27Z</time>
      </trkpt>
      <trkpt lat="43.52877" lon="6.26582">
        <ele>238.54</ele>
        <time>2015-11-27T10:20:31Z</time>
      </trkpt>
      <trkpt lat="43.52865" lon="6.26604">
        <ele>239.02</ele>
        <time>2015-11-27T10:20:45Z</time>
      </trkpt>
      <trkpt lat="43.52862" lon="6.2661">
        <ele>239.51</ele>
        <time>2015-11-27T10:20:49Z</time>
      </trkpt>
      <trkpt lat="43.52851" lon="6.26638">
        <ele>239.99</ele>
        <time>2015-11-27T10:21:04Z</time>
      </trkpt>
      <trkpt lat="43.52845" lon="6.2666">
        <ele>240.47</ele>
        <time>2015-11-27T10:21:16Z</time>
      </trkpt>
      <trkpt lat="43.52843" lon="6.26664">
        <ele>238.54</ele>
        <time>2015-11-27T10:21:19Z</time>
      </trkpt>
      <trkpt lat="43.52842" lon="6.26665">
        <ele>242.39</ele>
        <time>2015-11-27T10:21:20Z</time>
      </trkpt>
      <trkpt lat="43.52838" lon="6.26677">
        <ele>240.95</ele>
        <time>2015-11-27T10:21:26Z</time>
      </trkpt>
      <trkpt lat="43.52832" lon="6.26695">
        <ele>241.43</ele>
        <time>2015-11-27T10:21:37Z</time>
      </trkpt>
      <trkpt lat="43.52831" lon="6.26705">
        <ele>241.91</ele>
        <time>2015-11-27T10:21:41Z</time>
      </trkpt>
      <trkpt lat="43.52829" lon="6.2671">
        <ele>241.43</ele>
        <time>2015-11-27T10:21:44Z</time>
      </trkpt>
      <trkpt lat="43.52826" lon="6.26726">
        <ele>241.91</ele>
        <time>2015-11-27T10:21:52Z</time>
      </trkpt>
      <trkpt lat="43.52819" lon="6.2674">
        <ele>242.39</ele>
        <time>2015-11-27T10:22:00Z</time>
      </trkpt>
      <trkpt lat="43.52811" lon="6.26761">
        <ele>242.87</ele>
        <time>2015-11-27T10:22:13Z</time>
      </trkpt>
      <trkpt lat="43.52802" lon="6.26782">
        <ele>243.35</ele>
        <time>2015-11-27T10:22:25Z</time>
      </trkpt>
      <trkpt lat="43.52798" lon="6.26787">
        <ele>243.35</ele>
        <time>2015-11-27T10:22:30Z</time>
      </trkpt>
      <trkpt lat="43.52796" lon="6.26791">
        <ele>243.83</ele>
        <time>2015-11-27T10:22:32Z</time>
      </trkpt>
      <trkpt lat="43.52784" lon="6.2681">
        <ele>244.31</ele>
        <time>2015-11-27T10:22:45Z</time>
      </trkpt>
      <trkpt lat="43.52772" lon="6.26822">
        <ele>244.79</ele>
        <time>2015-11-27T10:22:55Z</time>
      </trkpt>
      <trkpt lat="43.52754" lon="6.2684">
        <ele>245.75</ele>
        <time>2015-11-27T10:23:09Z</time>
      </trkpt>
      <trkpt lat="43.52748" lon="6.26848">
        <ele>245.75</ele>
        <time>2015-11-27T10:23:15Z</time>
      </trkpt>
      <trkpt lat="43.52732" lon="6.26862">
        <ele>246.23</ele>
        <time>2015-11-27T10:23:29Z</time>
      </trkpt>
      <trkpt lat="43.52727" lon="6.26865">
        <ele>246.23</ele>
        <time>2015-11-27T10:23:33Z</time>
      </trkpt>
      <trkpt lat="43.52716" lon="6.26873">
        <ele>246.72</ele>
        <time>2015-11-27T10:23:42Z</time>
      </trkpt>
      <trkpt lat="43.52705" lon="6.26876">
        <ele>247.2</ele>
        <time>2015-11-27T10:23:51Z</time>
      </trkpt>
      <trkpt lat="43.52695" lon="6.26883">
        <ele>247.68</ele>
        <time>2015-11-27T10:23:59Z</time>
      </trkpt>
      <trkpt lat="43.5269" lon="6.26885">
        <ele>247.68</ele>
        <time>2015-11-27T10:24:03Z</time>
      </trkpt>
      <trkpt lat="43.52678" lon="6.26894">
        <ele>248.64</ele>
        <time>2015-11-27T10:24:13Z</time>
      </trkpt>
      <trkpt lat="43.52659" lon="6.269">
        <ele>249.12</ele>
        <time>2015-11-27T10:24:26Z</time>
      </trkpt>
      <trkpt lat="43.52658" lon="6.26901">
        <ele>249.12</ele>
        <time>2015-11-27T10:24:27Z</time>
      </trkpt>
      <trkpt lat="43.52651" lon="6.26907">
        <ele>249.6</ele>
        <time>2015-11-27T10:24:32Z</time>
      </trkpt>
      <trkpt lat="43.52644" lon="6.26911">
        <ele>249.6</ele>
        <time>2015-11-27T10:24:37Z</time>
      </trkpt>
      <trkpt lat="43.52633" lon="6.26918">
        <ele>250.08</ele>
        <time>2015-11-27T10:24:46Z</time>
      </trkpt>
      <trkpt lat="43.52627" lon="6.26923">
        <ele>250.08</ele>
        <time>2015-11-27T10:24:51Z</time>
      </trkpt>
      <trkpt lat="43.52624" lon="6.26926">
        <ele>250.08</ele>
        <time>2015-11-27T10:24:54Z</time>
      </trkpt>
      <trkpt lat="43.52615" lon="6.26933">
        <ele>250.56</ele>
        <time>2015-11-27T10:25:00Z</time>
      </trkpt>
      <trkpt lat="43.52611" lon="6.26936">
        <ele>250.56</ele>
        <time>2015-11-27T10:25:03Z</time>
      </trkpt>
      <trkpt lat="43.52599" lon="6.26948">
        <ele>251.04</ele>
        <time>2015-11-27T10:25:13Z</time>
      </trkpt>
      <trkpt lat="43.52596" lon="6.2695">
        <ele>251.04</ele>
        <time>2015-11-27T10:25:16Z</time>
      </trkpt>
      <trkpt lat="43.52585" lon="6.26959">
        <ele>251.52</ele>
        <time>2015-11-27T10:25:24Z</time>
      </trkpt>
      <trkpt lat="43.52579" lon="6.26966">
        <ele>252</ele>
        <time>2015-11-27T10:25:29Z</time>
      </trkpt>
      <trkpt lat="43.52567" lon="6.26983">
        <ele>252.48</ele>
        <time>2015-11-27T10:25:41Z</time>
      </trkpt>
      <trkpt lat="43.52556" lon="6.27003">
        <ele>253.44</ele>
        <time>2015-11-27T10:25:55Z</time>
      </trkpt>
      <trkpt lat="43.5255" lon="6.27032">
        <ele>253.93</ele>
        <time>2015-11-27T10:26:09Z</time>
      </trkpt>
      <trkpt lat="43.52545" lon="6.27056">
        <ele>254.41</ele>
        <time>2015-11-27T10:26:22Z</time>
      </trkpt>
      <trkpt lat="43.52545" lon="6.27057">
        <ele>254.41</ele>
        <time>2015-11-27T10:26:23Z</time>
      </trkpt>
      <trkpt lat="43.52543" lon="6.27084">
        <ele>255.37</ele>
        <time>2015-11-27T10:26:38Z</time>
      </trkpt>
      <trkpt lat="43.52544" lon="6.27118">
        <ele>255.85</ele>
        <time>2015-11-27T10:26:52Z</time>
      </trkpt>
      <trkpt lat="43.52547" lon="6.27127">
        <ele>255.85</ele>
        <time>2015-11-27T10:26:56Z</time>
      </trkpt>
      <trkpt lat="43.52553" lon="6.27159">
        <ele>255.85</ele>
        <time>2015-11-27T10:27:13Z</time>
      </trkpt>
      <trkpt lat="43.52555" lon="6.27173">
        <ele>255.85</ele>
        <time>2015-11-27T10:27:20Z</time>
      </trkpt>
      <trkpt lat="43.52556" lon="6.27176">
        <ele>255.85</ele>
        <time>2015-11-27T10:27:22Z</time>
      </trkpt>
      <trkpt lat="43.52562" lon="6.27207">
        <ele>255.37</ele>
        <time>2015-11-27T10:27:37Z</time>
      </trkpt>
      <trkpt lat="43.52567" lon="6.27228">
        <ele>254.89</ele>
        <time>2015-11-27T10:27:48Z</time>
      </trkpt>
      <trkpt lat="43.52571" lon="6.27254">
        <ele>254.41</ele>
        <time>2015-11-27T10:28:02Z</time>
      </trkpt>
      <trkpt lat="43.52569" lon="6.27284">
        <ele>253.93</ele>
        <time>2015-11-27T10:28:17Z</time>
      </trkpt>
      <trkpt lat="43.52566" lon="6.27312">
        <ele>253.44</ele>
        <time>2015-11-27T10:28:32Z</time>
      </trkpt>
      <trkpt lat="43.52565" lon="6.27325">
        <ele>253.44</ele>
        <time>2015-11-27T10:28:38Z</time>
      </trkpt>
      <trkpt lat="43.52559" lon="6.2735">
        <ele>252.96</ele>
        <time>2015-11-27T10:28:52Z</time>
      </trkpt>
      <trkpt lat="43.5255" lon="6.27381">
        <ele>252.48</ele>
        <time>2015-11-27T10:29:07Z</time>
      </trkpt>
      <trkpt lat="43.52543" lon="6.27408">
        <ele>252</ele>
        <time>2015-11-27T10:29:21Z</time>
      </trkpt>
      <trkpt lat="43.52538" lon="6.27425">
        <ele>251.52</ele>
        <time>2015-11-27T10:29:30Z</time>
      </trkpt>
      <trkpt lat="43.52537" lon="6.2743">
        <ele>251.52</ele>
        <time>2015-11-27T10:29:33Z</time>
      </trkpt>
      <trkpt lat="43.52531" lon="6.27443">
        <ele>251.52</ele>
        <time>2015-11-27T10:29:42Z</time>
      </trkpt>
      <trkpt lat="43.52525" lon="6.27459">
        <ele>251.04</ele>
        <time>2015-11-27T10:29:51Z</time>
      </trkpt>
      <trkpt lat="43.52524" lon="6.27467">
        <ele>251.04</ele>
        <time>2015-11-27T10:29:55Z</time>
      </trkpt>
      <trkpt lat="43.52524" lon="6.27474">
        <ele>251.04</ele>
        <time>2015-11-27T10:29:58Z</time>
      </trkpt>
      <trkpt lat="43.52533" lon="6.27505">
        <ele>251.04</ele>
        <time>2015-11-27T10:30:15Z</time>
      </trkpt>
      <trkpt lat="43.52543" lon="6.27532">
        <ele>251.04</ele>
        <time>2015-11-27T10:30:30Z</time>
      </trkpt>
      <trkpt lat="43.52552" lon="6.27561">
        <ele>252</ele>
        <time>2015-11-27T10:30:45Z</time>
      </trkpt>
      <trkpt lat="43.52559" lon="6.27587">
        <ele>252.96</ele>
        <time>2015-11-27T10:31:00Z</time>
      </trkpt>
      <trkpt lat="43.52562" lon="6.27612">
        <ele>253.93</ele>
        <time>2015-11-27T10:31:13Z</time>
      </trkpt>
      <trkpt lat="43.52555" lon="6.27643">
        <ele>254.41</ele>
        <time>2015-11-27T10:31:29Z</time>
      </trkpt>
      <trkpt lat="43.52547" lon="6.27666">
        <ele>254.89</ele>
        <time>2015-11-27T10:31:42Z</time>
      </trkpt>
      <trkpt lat="43.5253" lon="6.27686">
        <ele>254.41</ele>
        <time>2015-11-27T10:31:57Z</time>
      </trkpt>
      <trkpt lat="43.52528" lon="6.277">
        <ele>255.37</ele>
        <time>2015-11-27T10:32:12Z</time>
      </trkpt>
      <trkpt lat="43.52528" lon="6.27702">
        <ele>254.89</ele>
        <time>2015-11-27T10:32:36Z</time>
      </trkpt>
      <trkpt lat="43.52527" lon="6.27702">
        <ele>253.44</ele>
        <time>2015-11-27T10:32:43Z</time>
      </trkpt>
    </trkseg>
  </trk>
</gpx>